Observation data for Fort Lewis CO on 12/13/2019      Previous  Date       Current Mesonet Observations  Soil Data  Daily Summary Page  Observations in Plain Language
KFL1 130600Z 28008KT 01/M03 A302 RMK A01 T00101033  RH  073%=      5-min Rain = 0
KFL1 130601Z 29007KT 01/M03 A302 RMK A01 T00101032  RH  073%=      5-min Rain = 0
KFL1 130602Z 29008KT 01/M03 A302 RMK A01 T00111032  RH  073%=      5-min Rain = 0
KFL1 130603Z 29008KT 01/M03 A302 RMK A01 T00121031  RH  073%=      5-min Rain = 0
KFL1 130604Z 29009KT 01/M03 A302 RMK A01 T00111031  RH  074%=      5-min Rain = 0
KFL1 130605Z 29009KT 01/M03 A302 RMK A01 T00111031  RH  074%=      5-min Rain = 0
KFL1 130606Z 29008KT 01/M03 A302 RMK A01 T00101032  RH  073%=      5-min Rain = 0
KFL1 130607Z 29008KT 01/M03 A302 RMK A01 T00111031  RH  074%=      5-min Rain = 0
KFL1 130608Z 29009KT 01/M03 A302 RMK A01 T00121030  RH  073%=      5-min Rain = 0
KFL1 130609Z 29010KT 01/M03 A302 RMK A01 T00121031  RH  073%=      5-min Rain = 0
KFL1 130610Z 29010KT 01/M03 A302 RMK A01 T00131031  RH  073%=      5-min Rain = 0
KFL1 130611Z 29008KT 01/M03 A302 RMK A01 T00131031  RH  073%=      5-min Rain = 0
KFL1 130612Z 29009KT 01/M03 A302 RMK A01 T00131031  RH  073%=      5-min Rain = 0
KFL1 130613Z 29009KT 01/M03 A302 RMK A01 T00131031  RH  073%=      5-min Rain = 0
KFL1 130614Z 29010KT 01/M03 A302 RMK A01 T00141029  RH  073%=      5-min Rain = 0
KFL1 130615Z 29010KT 01/M03 A302 RMK A01 T00141030  RH  073%=      5-min Rain = 0
KFL1 130616Z 29009KT 02/M03 A3021 RMK A01 T00151030  RH  072%=      5-min Rain = 0
KFL1 130617Z 30009KT 01/M03 A3021 RMK A01 T00141030  RH  072%=      5-min Rain = 0
KFL1 130618Z 29009KT 02/M03 A3021 RMK A01 T00151029  RH  072%=      5-min Rain = 0
KFL1 130619Z 29011KT 02/M03 A3021 RMK A01 T00151029  RH  072%=      5-min Rain = 0
KFL1 130620Z 29010KT 02/M03 A3021 RMK A01 T00161029  RH  072%=      5-min Rain = 0
KFL1 130621Z 29011KT 02/M03 A3021 RMK A01 T00161029  RH  072%=      5-min Rain = 0
KFL1 130622Z 30012KT 02/M03 A3021 RMK A01 T00161030  RH  072%=      5-min Rain = 0
KFL1 130623Z 29012KT 02/M03 A3021 RMK A01 T00151029  RH  072%=      5-min Rain = 0
KFL1 130624Z 30011KT 02/M03 A3021 RMK A01 T00161029  RH  072%=      5-min Rain = 0
KFL1 130625Z 30010KT 02/M03 A302 RMK A01 T00171028  RH  072%=      5-min Rain = 0
KFL1 130626Z 29011KT 02/M03 A302 RMK A01 T00171030  RH  071%=      5-min Rain = 0
KFL1 130627Z 30009KT 02/M03 A302 RMK A01 T00171030  RH  071%=      5-min Rain = 0
KFL1 130628Z 30008KT 02/M03 A302 RMK A01 T00171030  RH  071%=      5-min Rain = 0
KFL1 130629Z 31009KT 02/M03 A302 RMK A01 T00181030  RH  071%=      5-min Rain = 0
KFL1 130630Z 30007KT 02/M03 A302 RMK A01 T00181030  RH  071%=      5-min Rain = 0
KFL1 130631Z 31012KT 02/M03 A302 RMK A01 T00171030  RH  071%=      5-min Rain = 0
KFL1 130632Z 30009KT 02/M03 A302 RMK A01 T00181030  RH  071%=      5-min Rain = 0
KFL1 130633Z 30009KT 02/M03 A302 RMK A01 T00191029  RH  071%=      5-min Rain = 0
KFL1 130634Z 30009KT 02/M03 A302 RMK A01 T00191030  RH  070%=      5-min Rain = 0
KFL1 130635Z 30008KT 02/M03 A302 RMK A01 T00191030  RH  070%=      5-min Rain = 0
KFL1 130636Z 31008KT 02/M03 A302 RMK A01 T00181030  RH  070%=      5-min Rain = 0
KFL1 130637Z 31009KT 02/M03 A302 RMK A01 T00191030  RH  070%=      5-min Rain = 0
KFL1 130638Z 31010KT 02/M03 A302 RMK A01 T00181031  RH  070%=      5-min Rain = 0
KFL1 130639Z 32010KT 02/M03 A302 RMK A01 T00181031  RH  070%=      5-min Rain = 0
KFL1 130640Z 31011KT 02/M03 A302 RMK A01 T00171030  RH  071%=      5-min Rain = 0
KFL1 130641Z 31010KT 02/M03 A3019 RMK A01 T00171031  RH  071%=      5-min Rain = 0
KFL1 130642Z 31009KT 02/M03 A3019 RMK A01 T00191030  RH  070%=      5-min Rain = 0
KFL1 130643Z 31010KT 02/M03 A3019 RMK A01 T00181030  RH  070%=      5-min Rain = 0
KFL1 130644Z 31011KT 02/M03 A3019 RMK A01 T00181030  RH  070%=      5-min Rain = 0
KFL1 130645Z 31009KT 02/M03 A3019 RMK A01 T00181029  RH  071%=      5-min Rain = 0
KFL1 130646Z 31009KT 02/M03 A3019 RMK A01 T00171032  RH  070%=      5-min Rain = 0
KFL1 130647Z 31009KT 02/M03 A3019 RMK A01 T00191030  RH  070%=      5-min Rain = 0
KFL1 130648Z 31008KT 02/M03 A3019 RMK A01 T00191030  RH  070%=      5-min Rain = 0
KFL1 130649Z 31008KT 02/M03 A3019 RMK A01 T00191030  RH  070%=      5-min Rain = 0
KFL1 130650Z 31009KT 02/M03 A3019 RMK A01 T00191029  RH  070%=      5-min Rain = 0
KFL1 130651Z 31010KT 02/M03 A302 RMK A01 T00181031  RH  070%=      5-min Rain = 0
KFL1 130652Z 31010KT 02/M03 A302 RMK A01 T00191030  RH  070%=      5-min Rain = 0
KFL1 130653Z 31009KT 02/M03 A3019 RMK A01 T00191030  RH  070%=      5-min Rain = 0
KFL1 130654Z 32009KT 02/M03 A3019 RMK A01 T00191031  RH  069%=      5-min Rain = 0
KFL1 130655Z 32009KT 02/M03 A3019 RMK A01 T00191030  RH  070%=      5-min Rain = 0
KFL1 130656Z 32009KT 02/M03 A3019 RMK A01 T00191030  RH  070%=      5-min Rain = 0
KFL1 130657Z 31007KT 02/M03 A3019 RMK A01 T00191029  RH  070%=      5-min Rain = 0
KFL1 130658Z 31007KT 02/M03 A3019 RMK A01 T00201029  RH  070%=      5-min Rain = 0
KFL1 130659Z 31006KT 02/M03 A3019 RMK A01 T00201028  RH  070%=      5-min Rain = 0
KFL1 130700Z 30007KT 02/M03 A3019 RMK A01 T00191029  RH  070%=      5-min Rain = 0
KFL1 130701Z 31006KT 02/M03 A3019 RMK A01 T00181031  RH  070%=      5-min Rain = 0
KFL1 130702Z 31005KT 02/M03 A3019 RMK A01 T00191031  RH  070%=      5-min Rain = 0
KFL1 130703Z 31006KT 02/M03 A3019 RMK A01 T00191030  RH  070%=      5-min Rain = 0
KFL1 130704Z 30005KT 02/M03 A3019 RMK A01 T00181030  RH  070%=      5-min Rain = 0
KFL1 130705Z 29005KT 02/M03 A3019 RMK A01 T00181030  RH  071%=      5-min Rain = 0
KFL1 130706Z 29006KT 02/M03 A3019 RMK A01 T00171030  RH  071%=      5-min Rain = 0
KFL1 130707Z 30007KT 02/M03 A3019 RMK A01 T00181029  RH  071%=      5-min Rain = 0
KFL1 130708Z 30006KT 02/M03 A3019 RMK A01 T00181030  RH  071%=      5-min Rain = 0
KFL1 130709Z 30011KT 02/M03 A3019 RMK A01 T00191029  RH  070%=      5-min Rain = 0
KFL1 130710Z 30009KT 02/M03 A3019 RMK A01 T00191030  RH  070%=      5-min Rain = 0
KFL1 130711Z 30008KT 02/M03 A3019 RMK A01 T00201029  RH  070%=      5-min Rain = 0
KFL1 130712Z 30006KT 02/M03 A3019 RMK A01 T00191029  RH  070%=      5-min Rain = 0
KFL1 130713Z 29006KT 02/M03 A3019 RMK A01 T00211027  RH  071%=      5-min Rain = 0
KFL1 130714Z 29006KT 02/M03 A3019 RMK A01 T00191028  RH  071%=      5-min Rain = 0
KFL1 130715Z 28006KT 02/M03 A3019 RMK A01 T00181030  RH  070%=      5-min Rain = 0
KFL1 130716Z 27005KT 02/M03 A3019 RMK A01 T00191030  RH  070%=      5-min Rain = 0
KFL1 130717Z 29006KT 02/M03 A3019 RMK A01 T00191031  RH  070%=      5-min Rain = 0
KFL1 130718Z 28007KT 02/M03 A3019 RMK A01 T00191030  RH  070%=      5-min Rain = 0
KFL1 130719Z 28004KT 02/M03 A3019 RMK A01 T00181029  RH  071%=      5-min Rain = 0
KFL1 130720Z 28005KT 02/M03 A3019 RMK A01 T00181028  RH  071%=      5-min Rain = 0
KFL1 130721Z 29005KT 02/M03 A3019 RMK A01 T00161031  RH  071%=      5-min Rain = 0
KFL1 130722Z 27004KT 02/M03 A3018 RMK A01 T00171030  RH  071%=      5-min Rain = 0
KFL1 130723Z 27003KT 02/M03 A3018 RMK A01 T00161030  RH  072%=      5-min Rain = 0
KFL1 130724Z 28003KT 02/M03 A3018 RMK A01 T00171028  RH  072%=      5-min Rain = 0
KFL1 130725Z 27003KT 02/M03 A3018 RMK A01 T00161029  RH  072%=      5-min Rain = 0
KFL1 130726Z 28004KT 02/M03 A3018 RMK A01 T00161029  RH  072%=      5-min Rain = 0
KFL1 130727Z 28006KT 02/M03 A3018 RMK A01 T00151030  RH  072%=      5-min Rain = 0
KFL1 130728Z 28006KT 02/M03 A3019 RMK A01 T00151031  RH  072%=      5-min Rain = 0
KFL1 130729Z 28006KT 02/M03 A3019 RMK A01 T00151032  RH  071%=      5-min Rain = 0
KFL1 130730Z 28006KT 02/M03 A3019 RMK A01 T00151031  RH  071%=      5-min Rain = 0
KFL1 130731Z 28006KT 02/M03 A3019 RMK A01 T00161031  RH  071%=      5-min Rain = 0
KFL1 130732Z 28005KT 02/M03 A3018 RMK A01 T00161030  RH  071%=      5-min Rain = 0
KFL1 130733Z 27005KT 02/M03 A3018 RMK A01 T00171030  RH  071%=      5-min Rain = 0
KFL1 130734Z 28006KT 02/M03 A3018 RMK A01 T00151031  RH  071%=      5-min Rain = 0
KFL1 130735Z 27005KT 01/M03 A3018 RMK A01 T00141031  RH  072%=      5-min Rain = 0
KFL1 130736Z 27004KT 01/M03 A3017 RMK A01 T00141030  RH  072%=      5-min Rain = 0
KFL1 130737Z 27006KT 01/M03 A3017 RMK A01 T00131031  RH  072%=      5-min Rain = 0
KFL1 130738Z 26005KT 01/M03 A3018 RMK A01 T00141030  RH  072%=      5-min Rain = 0
KFL1 130739Z 27006KT 02/M03 A3018 RMK A01 T00151030  RH  072%=      5-min Rain = 0
KFL1 130740Z 26005KT 01/M03 A3018 RMK A01 T00141030  RH  073%=      5-min Rain = 0
KFL1 130741Z 26005KT 02/M03 A3018 RMK A01 T00151029  RH  073%=      5-min Rain = 0
KFL1 130742Z 25006KT 01/M03 A3018 RMK A01 T00141031  RH  072%=      5-min Rain = 0
KFL1 130743Z 25005KT 01/M03 A3018 RMK A01 T00131032  RH  072%=      5-min Rain = 0
KFL1 130744Z 24005KT 02/M03 A3017 RMK A01 T00151029  RH  073%=      5-min Rain = 0
KFL1 130745Z 24006KT 01/M03 A3017 RMK A01 T00131028  RH  074%=      5-min Rain = 0
KFL1 130746Z 24005KT 01/M03 A3017 RMK A01 T00121029  RH  074%=      5-min Rain = 0
KFL1 130747Z 25005KT 01/M03 A3017 RMK A01 T00101031  RH  074%=      5-min Rain = 0
KFL1 130748Z 25006KT 01/M03 A3017 RMK A01 T00101030  RH  075%=      5-min Rain = 0
KFL1 130749Z 25006KT 01/M03 A3017 RMK A01 T00091031  RH  075%=      5-min Rain = 0
KFL1 130750Z 26006KT 01/M03 A3017 RMK A01 T00111029  RH  074%=      5-min Rain = 0
KFL1 130751Z 26005KT 01/M03 A3017 RMK A01 T00111031  RH  074%=      5-min Rain = 0
KFL1 130752Z 26005KT 01/M03 A3017 RMK A01 T00111032  RH  073%=      5-min Rain = 0
KFL1 130753Z 26005KT 01/M03 A3016 RMK A01 T00111030  RH  074%=      5-min Rain = 0
KFL1 130754Z 25006KT 01/M03 A3016 RMK A01 T00101031  RH  074%=      5-min Rain = 0
KFL1 130755Z 26006KT 01/M03 A3017 RMK A01 T00101031  RH  074%=      5-min Rain = 0
KFL1 130756Z 26006KT 01/M03 A3017 RMK A01 T00101032  RH  074%=      5-min Rain = 0
KFL1 130757Z 25006KT 01/M03 A3017 RMK A01 T00091033  RH  074%=      5-min Rain = 0
KFL1 130758Z 26006KT 01/M03 A3017 RMK A01 T00111031  RH  074%=      5-min Rain = 0
KFL1 130759Z 26006KT 01/M03 A3017 RMK A01 T00101032  RH  074%=      5-min Rain = 0
KFL1 130800Z 26006KT 01/M03 A3017 RMK A01 T00101032  RH  073%=      5-min Rain = 0
KFL1 130801Z 26006KT 01/M03 A3017 RMK A01 T00101032  RH  074%=      5-min Rain = 0
KFL1 130802Z 26005KT 01/M03 A3017 RMK A01 T00101031  RH  074%=      5-min Rain = 0
KFL1 130803Z 26005KT 01/M03 A3017 RMK A01 T00091031  RH  074%=      5-min Rain = 0
KFL1 130804Z 26006KT 01/M03 A3017 RMK A01 T00101030  RH  075%=      5-min Rain = 0
KFL1 130805Z 27006KT 01/M03 A3017 RMK A01 T00081031  RH  075%=      5-min Rain = 0
KFL1 130806Z 27006KT 01/M03 A3017 RMK A01 T00091030  RH  075%=      5-min Rain = 0
KFL1 130807Z 26005KT 01/M03 A3017 RMK A01 T00081030  RH  076%=      5-min Rain = 0
KFL1 130808Z 26006KT 01/M03 A3017 RMK A01 T00081030  RH  076%=      5-min Rain = 0
KFL1 130809Z 26005KT 01/M03 A3016 RMK A01 T00081031  RH  075%=      5-min Rain = 0
KFL1 130810Z 25005KT 01/M03 A3016 RMK A01 T00081032  RH  075%=      5-min Rain = 0
KFL1 130811Z 25006KT 01/M03 A3017 RMK A01 T00091032  RH  074%=      5-min Rain = 0
KFL1 130812Z 26007KT 01/M03 A3017 RMK A01 T00111029  RH  075%=      5-min Rain = 0
KFL1 130813Z 26006KT 01/M03 A3017 RMK A01 T00101031  RH  074%=      5-min Rain = 0
KFL1 130814Z 26006KT 01/M03 A3017 RMK A01 T00111029  RH  074%=      5-min Rain = 0
KFL1 130815Z 27005KT 01/M03 A3017 RMK A01 T00101030  RH  075%=      5-min Rain = 0
KFL1 130816Z 27004KT 01/M03 A3017 RMK A01 T00101030  RH  075%=      5-min Rain = 0
KFL1 130817Z 27004KT 01/M03 A3017 RMK A01 T00101030  RH  075%=      5-min Rain = 0
KFL1 130818Z 26005KT 01/M03 A3017 RMK A01 T00101029  RH  075%=      5-min Rain = 0
KFL1 130819Z 25005KT 01/M03 A3017 RMK A01 T00091029  RH  076%=      5-min Rain = 0
KFL1 130820Z 26005KT 01/M03 A3017 RMK A01 T00091029  RH  076%=      5-min Rain = 0
KFL1 130821Z 27006KT 01/M03 A3018 RMK A01 T00091029  RH  076%=      5-min Rain = 0
KFL1 130822Z 28005KT 01/M03 A3018 RMK A01 T00091030  RH  076%=      5-min Rain = 0
KFL1 130823Z 28005KT 01/M03 A3018 RMK A01 T00071032  RH  075%=      5-min Rain = 0
KFL1 130824Z 27005KT 01/M03 A3017 RMK A01 T00091029  RH  075%=      5-min Rain = 0
KFL1 130825Z 26006KT 01/M03 A3017 RMK A01 T00091028  RH  076%=      5-min Rain = 0
KFL1 130826Z 26007KT 01/M03 A3017 RMK A01 T00081029  RH  076%=      5-min Rain = 0
KFL1 130827Z 26007KT 01/M03 A3017 RMK A01 T00081030  RH  076%=      5-min Rain = 0
KFL1 130828Z 27006KT 01/M03 A3017 RMK A01 T00081030  RH  075%=      5-min Rain = 0
KFL1 130829Z 27006KT 01/M03 A3018 RMK A01 T00081030  RH  075%=      5-min Rain = 0
KFL1 130830Z 27007KT 01/M03 A3018 RMK A01 T00081030  RH  075%=      5-min Rain = 0
KFL1 130831Z 28007KT 01/M03 A3018 RMK A01 T00081031  RH  075%=      5-min Rain = 0
KFL1 130832Z 27008KT 01/M03 A3018 RMK A01 T00081031  RH  075%=      5-min Rain = 0
KFL1 130833Z 27007KT 01/M03 A3018 RMK A01 T00081031  RH  075%=      5-min Rain = 0
KFL1 130834Z 27008KT 01/M03 A3018 RMK A01 T00081031  RH  075%=      5-min Rain = 0
KFL1 130835Z 28007KT 01/M03 A3018 RMK A01 T00081031  RH  075%=      5-min Rain = 0
KFL1 130836Z 27007KT 01/M03 A3018 RMK A01 T00101030  RH  075%=      5-min Rain = 0
KFL1 130837Z 28007KT 01/M03 A3017 RMK A01 T00111030  RH  074%=      5-min Rain = 0
KFL1 130838Z 27007KT 01/M03 A3017 RMK A01 T00121030  RH  074%=      5-min Rain = 0
KFL1 130839Z 27008KT 01/M03 A3017 RMK A01 T00111030  RH  074%=      5-min Rain = 0
KFL1 130840Z 27007KT 01/M03 A3017 RMK A01 T00101031  RH  074%=      5-min Rain = 0
KFL1 130841Z 27008KT 01/M03 A3017 RMK A01 T00111029  RH  075%=      5-min Rain = 0
KFL1 130842Z 28007KT 01/M03 A3017 RMK A01 T00101030  RH  074%=      5-min Rain = 0
KFL1 130843Z 28009KT 01/M03 A3017 RMK A01 T00101031  RH  074%=      5-min Rain = 0
KFL1 130844Z 28008KT 01/M03 A3017 RMK A01 T00131030  RH  073%=      5-min Rain = 0
KFL1 130845Z 28009KT 01/M03 A3017 RMK A01 T00131032  RH  072%=      5-min Rain = 0
KFL1 130846Z 28009KT 01/M03 A3017 RMK A01 T00131031  RH  072%=      5-min Rain = 0
KFL1 130847Z 27009KT 01/M03 A3017 RMK A01 T00131031  RH  072%=      5-min Rain = 0
KFL1 130848Z 28010KT 01/M03 A3017 RMK A01 T00131030  RH  073%=      5-min Rain = 0
KFL1 130849Z 28010KT 01/M03 A3017 RMK A01 T00121031  RH  073%=      5-min Rain = 0
KFL1 130850Z 28007KT 01/M03 A3018 RMK A01 T00131031  RH  073%=      5-min Rain = 0
KFL1 130851Z 27007KT 01/M03 A3018 RMK A01 T00131030  RH  073%=      5-min Rain = 0
KFL1 130852Z 28008KT 01/M03 A3018 RMK A01 T00141030  RH  072%=      5-min Rain = 0
KFL1 130853Z 28007KT 01/M03 A3018 RMK A01 T00131031  RH  072%=      5-min Rain = 0
KFL1 130854Z 28008KT 01/M03 A3017 RMK A01 T00131031  RH  072%=      5-min Rain = 0
KFL1 130855Z 28007KT 01/M03 A3017 RMK A01 T00131030  RH  073%=      5-min Rain = 0
KFL1 130856Z 28007KT 01/M03 A3017 RMK A01 T00121032  RH  072%=      5-min Rain = 0
KFL1 130857Z 28010KT 01/M03 A3017 RMK A01 T00131031  RH  073%=      5-min Rain = 0
KFL1 130858Z 28007KT 01/M03 A3017 RMK A01 T00121031  RH  073%=      5-min Rain = 0
KFL1 130859Z 28008KT 01/M03 A3017 RMK A01 T00141030  RH  073%=      5-min Rain = 0
KFL1 130900Z 28007KT 01/M03 A3017 RMK A01 T00141031  RH  072%=      5-min Rain = 0
KFL1 130901Z 28008KT 01/M03 A3017 RMK A01 T00141031  RH  072%=      5-min Rain = 0
KFL1 130902Z 28008KT 01/M03 A3017 RMK A01 T00141031  RH  072%=      5-min Rain = 0
KFL1 130903Z 28009KT 01/M03 A3017 RMK A01 T00141031  RH  072%=      5-min Rain = 0
KFL1 130904Z 28008KT 01/M03 A3017 RMK A01 T00131030  RH  073%=      5-min Rain = 0
KFL1 130905Z 28008KT 01/M03 A3017 RMK A01 T00131032  RH  072%=      5-min Rain = 0
KFL1 130906Z 28007KT 01/M03 A3017 RMK A01 T00141031  RH  072%=      5-min Rain = 0
KFL1 130907Z 29009KT 01/M03 A3017 RMK A01 T00131031  RH  072%=      5-min Rain = 0
KFL1 130908Z 29008KT 01/M03 A3017 RMK A01 T00131031  RH  073%=      5-min Rain = 0
KFL1 130909Z 29008KT 01/M03 A3017 RMK A01 T00131030  RH  073%=      5-min Rain = 0
KFL1 130910Z 29008KT 01/M03 A3017 RMK A01 T00141029  RH  073%=      5-min Rain = 0
KFL1 130911Z 29006KT 01/M03 A3017 RMK A01 T00131029  RH  074%=      5-min Rain = 0
KFL1 130912Z 28006KT 01/M03 A3017 RMK A01 T00121030  RH  074%=      5-min Rain = 0
KFL1 130913Z 29007KT 01/M03 A3017 RMK A01 T00121029  RH  074%=      5-min Rain = 0
KFL1 130914Z 30007KT 01/M03 A3017 RMK A01 T00121029  RH  074%=      5-min Rain = 0
KFL1 130915Z 29008KT 01/M03 A3017 RMK A01 T00111030  RH  074%=      5-min Rain = 0
KFL1 130916Z 29008KT 01/M03 A3017 RMK A01 T00111030  RH  074%=      5-min Rain = 0
KFL1 130917Z 30009KT 01/M03 A3017 RMK A01 T00111029  RH  074%=      5-min Rain = 0
KFL1 130918Z 29009KT 01/M03 A3017 RMK A01 T00101030  RH  075%=      5-min Rain = 0
KFL1 130919Z 30008KT 01/M03 A3017 RMK A01 T00101030  RH  074%=      5-min Rain = 0
KFL1 130920Z 30008KT 01/M03 A3017 RMK A01 T00121030  RH  074%=      5-min Rain = 0
KFL1 130921Z 29009KT 01/M03 A3017 RMK A01 T00121030  RH  074%=      5-min Rain = 0
KFL1 130922Z 30007KT 01/M03 A3017 RMK A01 T00131029  RH  073%=      5-min Rain = 0
KFL1 130923Z 29009KT 01/M03 A3017 RMK A01 T00121031  RH  073%=      5-min Rain = 0
KFL1 130924Z 30009KT 01/M03 A3017 RMK A01 T00121030  RH  073%=      5-min Rain = 0
KFL1 130925Z 29009KT 01/M03 A3017 RMK A01 T00121031  RH  073%=      5-min Rain = 0
KFL1 130926Z 30009KT 01/M03 A3017 RMK A01 T00111030  RH  074%=      5-min Rain = 0
KFL1 130927Z 29009KT 01/M03 A3017 RMK A01 T00121029  RH  074%=      5-min Rain = 0
KFL1 130928Z 29008KT 01/M03 A3017 RMK A01 T00101030  RH  074%=      5-min Rain = 0
KFL1 130929Z 30009KT 01/M03 A3017 RMK A01 T00111029  RH  075%=      5-min Rain = 0
KFL1 130930Z 30009KT 01/M03 A3017 RMK A01 T00101030  RH  074%=      5-min Rain = 0
KFL1 130931Z 30009KT 01/M03 A3017 RMK A01 T00111031  RH  074%=      5-min Rain = 0
KFL1 130932Z 29009KT 01/M03 A3017 RMK A01 T00121030  RH  074%=      5-min Rain = 0
KFL1 130933Z 30010KT 01/M03 A3017 RMK A01 T00131029  RH  074%=      5-min Rain = 0
KFL1 130934Z 28008KT 01/M03 A3016 RMK A01 T00111031  RH  074%=      5-min Rain = 0
KFL1 130935Z 29009KT 01/M03 A3016 RMK A01 T00121030  RH  074%=      5-min Rain = 0
KFL1 130936Z 29008KT 01/M03 A3017 RMK A01 T00111031  RH  073%=      5-min Rain = 0
KFL1 130937Z 30010KT 01/M03 A3017 RMK A01 T00111031  RH  073%=      5-min Rain = 0
KFL1 130938Z 30010KT 01/M03 A3017 RMK A01 T00111032  RH  073%=      5-min Rain = 0
KFL1 130939Z 30010KT 01/M03 A3017 RMK A01 T00111032  RH  073%=      5-min Rain = 0
KFL1 130940Z 29008KT 01/M03 A3017 RMK A01 T00121031  RH  073%=      5-min Rain = 0
KFL1 130941Z 29009KT 01/M03 A3017 RMK A01 T00121031  RH  073%=      5-min Rain = 0
KFL1 130942Z 29009KT 01/M03 A3017 RMK A01 T00101032  RH  073%=      5-min Rain = 0
KFL1 130943Z 29009KT 01/M03 A3017 RMK A01 T00111031  RH  074%=      5-min Rain = 0
KFL1 130944Z 28009KT 01/M03 A3017 RMK A01 T00111031  RH  073%=      5-min Rain = 0
KFL1 130945Z 27007KT 01/M03 A3016 RMK A01 T00111032  RH  073%=      5-min Rain = 0
KFL1 130946Z 26006KT 01/M03 A3016 RMK A01 T00111032  RH  073%=      5-min Rain = 0
KFL1 130947Z 27006KT 01/M03 A3016 RMK A01 T00111031  RH  073%=      5-min Rain = 0
KFL1 130948Z 29008KT 01/M03 A3017 RMK A01 T00121030  RH  073%=      5-min Rain = 0
KFL1 130949Z 29009KT 01/M03 A3018 RMK A01 T00101032  RH  073%=      5-min Rain = 0
KFL1 130950Z 29009KT 01/M03 A3017 RMK A01 T00101031  RH  074%=      5-min Rain = 0
KFL1 130951Z 26008KT 01/M03 A3017 RMK A01 T00111030  RH  074%=      5-min Rain = 0
KFL1 130952Z 27006KT 01/M03 A3016 RMK A01 T00111030  RH  074%=      5-min Rain = 0
KFL1 130953Z 28005KT 01/M03 A3016 RMK A01 T00101032  RH  074%=      5-min Rain = 0
KFL1 130954Z 30007KT 01/M03 A3017 RMK A01 T00101032  RH  074%=      5-min Rain = 0
KFL1 130955Z 30008KT 01/M03 A3017 RMK A01 T00091033  RH  073%=      5-min Rain = 0
KFL1 130956Z 29008KT 01/M03 A3017 RMK A01 T00111032  RH  073%=      5-min Rain = 0
KFL1 130957Z 29008KT 01/M03 A3017 RMK A01 T00101031  RH  074%=      5-min Rain = 0
KFL1 130958Z 29009KT 01/M03 A3017 RMK A01 T00101030  RH  074%=      5-min Rain = 0
KFL1 130959Z 29009KT 01/M03 A3017 RMK A01 T00091031  RH  075%=      5-min Rain = 0
KFL1 131000Z 29008KT 01/M03 A3017 RMK A01 T00091030  RH  075%=      5-min Rain = 0
KFL1 131001Z 29009KT 01/M03 A3017 RMK A01 T00081031  RH  075%=      5-min Rain = 0
KFL1 131002Z 29009KT 01/M03 A3017 RMK A01 T00101030  RH  075%=      5-min Rain = 0
KFL1 131003Z 29008KT 01/M03 A3017 RMK A01 T00081031  RH  075%=      5-min Rain = 0
KFL1 131004Z 29008KT 01/M03 A3017 RMK A01 T00081031  RH  075%=      5-min Rain = 0
KFL1 131005Z 29008KT 01/M03 A3017 RMK A01 T00091031  RH  075%=      5-min Rain = 0
KFL1 131006Z 29007KT 01/M03 A3017 RMK A01 T00091031  RH  075%=      5-min Rain = 0
KFL1 131007Z 29009KT 01/M03 A3017 RMK A01 T00091030  RH  075%=      5-min Rain = 0
KFL1 131008Z 28008KT 01/M03 A3017 RMK A01 T00081031  RH  075%=      5-min Rain = 0
KFL1 131009Z 28010KT 01/M03 A3017 RMK A01 T00091030  RH  075%=      5-min Rain = 0
KFL1 131010Z 29010KT 01/M03 A3016 RMK A01 T00101030  RH  075%=      5-min Rain = 0
KFL1 131011Z 30009KT 01/M03 A3016 RMK A01 T00091031  RH  074%=      5-min Rain = 0
KFL1 131012Z 29009KT 01/M03 A3016 RMK A01 T00091031  RH  074%=      5-min Rain = 0
KFL1 131013Z 29009KT 01/M03 A3016 RMK A01 T00091031  RH  075%=      5-min Rain = 0
KFL1 131014Z 30009KT 01/M03 A3017 RMK A01 T00081032  RH  075%=      5-min Rain = 0
KFL1 131015Z 30011KT 01/M03 A3017 RMK A01 T00081032  RH  075%=      5-min Rain = 0
KFL1 131016Z 30009KT 01/M03 A3017 RMK A01 T00091032  RH  074%=      5-min Rain = 0
KFL1 131017Z 30010KT 01/M03 A3017 RMK A01 T00091031  RH  074%=      5-min Rain = 0
KFL1 131018Z 30009KT 01/M03 A3017 RMK A01 T00101030  RH  075%=      5-min Rain = 0
KFL1 131019Z 29007KT 01/M03 A3016 RMK A01 T00101030  RH  075%=      5-min Rain = 0
KFL1 131020Z 29008KT 01/M03 A3016 RMK A01 T00081032  RH  075%=      5-min Rain = 0
KFL1 131021Z 29009G16KT 01/M03 A3016 RMK A01 T00091031  RH  075%=      5-min Rain = 0
KFL1 131022Z 29012KT 01/M03 A3016 RMK A01 T00091030  RH  075%=      5-min Rain = 0
KFL1 131023Z 28009KT 01/M03 A3016 RMK A01 T00081031  RH  075%=      5-min Rain = 0
KFL1 131024Z 28007KT 01/M03 A3016 RMK A01 T00081032  RH  075%=      5-min Rain = 0
KFL1 131025Z 28008KT 01/M03 A3015 RMK A01 T00091031  RH  075%=      5-min Rain = 0
KFL1 131026Z 29010KT 01/M03 A3015 RMK A01 T00081032  RH  075%=      5-min Rain = 0
KFL1 131027Z 30009KT 01/M03 A3015 RMK A01 T00071032  RH  075%=      5-min Rain = 0
KFL1 131028Z 30010KT 01/M03 A3015 RMK A01 T00071032  RH  075%=      5-min Rain = 0
KFL1 131029Z 29010KT 01/M03 A3015 RMK A01 T00081031  RH  075%=      5-min Rain = 0
KFL1 131030Z 29010KT 01/M03 A3015 RMK A01 T00071032  RH  075%=      5-min Rain = 0
KFL1 131031Z 29011KT 01/M03 A3015 RMK A01 T00061033  RH  075%=      5-min Rain = 0
KFL1 131032Z 28011KT 01/M03 A3015 RMK A01 T00081032  RH  075%=      5-min Rain = 0
KFL1 131033Z 30008KT 01/M03 A3015 RMK A01 T00071032  RH  075%=      5-min Rain = 0
KFL1 131034Z 30009KT 01/M03 A3015 RMK A01 T00081032  RH  075%=      5-min Rain = 0
KFL1 131035Z 30012KT 01/M03 A3015 RMK A01 T00081032  RH  075%=      5-min Rain = 0
KFL1 131036Z 29011KT 01/M03 A3015 RMK A01 T00071032  RH  075%=      5-min Rain = 0
KFL1 131037Z 29011KT 01/M03 A3015 RMK A01 T00081032  RH  075%=      5-min Rain = 0
KFL1 131038Z 29010KT 01/M03 A3015 RMK A01 T00071032  RH  075%=      5-min Rain = 0
KFL1 131039Z 29009KT 01/M03 A3015 RMK A01 T00071033  RH  075%=      5-min Rain = 0
KFL1 131040Z 30010KT 01/M03 A3015 RMK A01 T00091031  RH  075%=      5-min Rain = 0
KFL1 131041Z 31010KT 01/M03 A3015 RMK A01 T00091031  RH  075%=      5-min Rain = 0
KFL1 131042Z 30008KT 01/M03 A3015 RMK A01 T00081031  RH  075%=      5-min Rain = 0
KFL1 131043Z 30008KT 01/M03 A3015 RMK A01 T00071032  RH  075%=      5-min Rain = 0
KFL1 131044Z 30009KT 01/M03 A3014 RMK A01 T00081031  RH  076%=      5-min Rain = 0
KFL1 131045Z 30009KT 01/M03 A3014 RMK A01 T00071031  RH  075%=      5-min Rain = 0
KFL1 131046Z 30008KT 01/M03 A3014 RMK A01 T00081031  RH  075%=      5-min Rain = 0
KFL1 131047Z 30010KT 01/M03 A3014 RMK A01 T00071032  RH  075%=      5-min Rain = 0
KFL1 131048Z 30007KT 01/M03 A3015 RMK A01 T00071032  RH  075%=      5-min Rain = 0
KFL1 131049Z 30009KT 01/M03 A3015 RMK A01 T00081031  RH  076%=      5-min Rain = 0
KFL1 131050Z 30011KT 01/M03 A3015 RMK A01 T00081030  RH  076%=      5-min Rain = 0
KFL1 131051Z 30009KT 01/M03 A3015 RMK A01 T00081030  RH  075%=      5-min Rain = 0
KFL1 131052Z 30009KT 01/M03 A3015 RMK A01 T00071032  RH  075%=      5-min Rain = 0
KFL1 131053Z 30009KT 01/M03 A3014 RMK A01 T00091029  RH  075%=      5-min Rain = 0
KFL1 131054Z 30011KT 01/M03 A3014 RMK A01 T00081031  RH  075%=      5-min Rain = 0
KFL1 131055Z 29008KT 01/M03 A3014 RMK A01 T00071032  RH  075%=      5-min Rain = 0
KFL1 131056Z 29009KT 01/M03 A3014 RMK A01 T00091031  RH  075%=      5-min Rain = 0
KFL1 131057Z 30009KT 01/M03 A3014 RMK A01 T00071032  RH  075%=      5-min Rain = 0
KFL1 131058Z 30009KT 01/M03 A3014 RMK A01 T00061033  RH  075%=      5-min Rain = 0
KFL1 131059Z 30009KT 01/M03 A3014 RMK A01 T00061032  RH  076%=      5-min Rain = 0
KFL1 131100Z 29008KT 01/M03 A3014 RMK A01 T00061032  RH  076%=      5-min Rain = 0
KFL1 131101Z 28008KT 01/M03 A3014 RMK A01 T00071031  RH  076%=      5-min Rain = 0
KFL1 131102Z 27009KT 01/M03 A3014 RMK A01 T00071032  RH  076%=      5-min Rain = 0
KFL1 131103Z 28008KT 01/M03 A3014 RMK A01 T00071032  RH  075%=      5-min Rain = 0
KFL1 131104Z 29009KT 01/M03 A3014 RMK A01 T00071033  RH  075%=      5-min Rain = 0
KFL1 131105Z 29009KT 01/M03 A3015 RMK A01 T00081031  RH  075%=      5-min Rain = 0
KFL1 131106Z 29009KT 01/M03 A3015 RMK A01 T00071031  RH  076%=      5-min Rain = 0
KFL1 131107Z 29008KT 01/M03 A3015 RMK A01 T00061032  RH  076%=      5-min Rain = 0
KFL1 131108Z 30007KT 01/M03 A3015 RMK A01 T00071030  RH  076%=      5-min Rain = 0
KFL1 131109Z 29009KT 01/M03 A3014 RMK A01 T00071031  RH  076%=      5-min Rain = 0
KFL1 131110Z 30008KT 01/M03 A3014 RMK A01 T00071031  RH  076%=      5-min Rain = 0
KFL1 131111Z 30008KT 01/M03 A3014 RMK A01 T00071031  RH  076%=      5-min Rain = 0
KFL1 131112Z 30007KT 01/M03 A3014 RMK A01 T00071031  RH  076%=      5-min Rain = 0
KFL1 131113Z 29007KT 01/M03 A3014 RMK A01 T00071030  RH  076%=      5-min Rain = 0
KFL1 131114Z 29007KT 01/M03 A3014 RMK A01 T00061030  RH  077%=      5-min Rain = 0
KFL1 131115Z 29008KT 01/M03 A3014 RMK A01 T00061030  RH  077%=      5-min Rain = 0
KFL1 131116Z 28008KT 01/M03 A3014 RMK A01 T00071029  RH  076%=      5-min Rain = 0
KFL1 131117Z 28007KT 01/M03 A3014 RMK A01 T00071030  RH  076%=      5-min Rain = 0
KFL1 131118Z 27008KT 01/M03 A3014 RMK A01 T00061031  RH  076%=      5-min Rain = 0
KFL1 131119Z 27006KT 01/M03 A3014 RMK A01 T00061031  RH  076%=      5-min Rain = 0
KFL1 131120Z 28007KT 01/M03 A3014 RMK A01 T00061032  RH  076%=      5-min Rain = 0
KFL1 131121Z 28006KT 01/M03 A3013 RMK A01 T00061032  RH  076%=      5-min Rain = 0
KFL1 131122Z 28005KT 01/M03 A3013 RMK A01 T00061032  RH  076%=      5-min Rain = 0
KFL1 131123Z 28005KT 01/M03 A3014 RMK A01 T00061031  RH  076%=      5-min Rain = 0
KFL1 131124Z 29006KT 01/M03 A3014 RMK A01 T00071031  RH  076%=      5-min Rain = 0
KFL1 131125Z 28009KT 01/M03 A3014 RMK A01 T00061031  RH  076%=      5-min Rain = 0
KFL1 131126Z 28009KT 01/M03 A3014 RMK A01 T00061031  RH  076%=      5-min Rain = 0
KFL1 131127Z 28008KT 01/M03 A3014 RMK A01 T00081029  RH  076%=      5-min Rain = 0
KFL1 131128Z 27008KT 01/M03 A3014 RMK A01 T00061030  RH  076%=      5-min Rain = 0
KFL1 131129Z 28007KT 01/M03 A3014 RMK A01 T00061031  RH  076%=      5-min Rain = 0
KFL1 131130Z 27007KT 01/M03 A3014 RMK A01 T00061031  RH  076%=      5-min Rain = 0
KFL1 131131Z 27007KT 01/M03 A3014 RMK A01 T00061031  RH  076%=      5-min Rain = 0
KFL1 131132Z 27007KT 01/M03 A3014 RMK A01 T00061031  RH  076%=      5-min Rain = 0
KFL1 131133Z 28007KT 01/M03 A3014 RMK A01 T00061031  RH  076%=      5-min Rain = 0
KFL1 131134Z 28005KT 01/M03 A3014 RMK A01 T00061031  RH  076%=      5-min Rain = 0
KFL1 131135Z 28005KT 01/M03 A3014 RMK A01 T00061031  RH  076%=      5-min Rain = 0
KFL1 131136Z 28006KT 01/M03 A3014 RMK A01 T00061031  RH  077%=      5-min Rain = 0
KFL1 131137Z 28005KT 01/M03 A3014 RMK A01 T00051031  RH  077%=      5-min Rain = 0
KFL1 131138Z 28005KT 01/M03 A3014 RMK A01 T00051031  RH  077%=      5-min Rain = 0
KFL1 131139Z 26004KT 00/M03 A3014 RMK A01 T00041031  RH  077%=      5-min Rain = 0
KFL1 131140Z 28005KT 00/M03 A3014 RMK A01 T00041031  RH  078%=      5-min Rain = 0
KFL1 131141Z 27005KT 00/M03 A3014 RMK A01 T00031032  RH  077%=      5-min Rain = 0
KFL1 131142Z 28006KT 00/M03 A3014 RMK A01 T00031032  RH  078%=      5-min Rain = 0
KFL1 131143Z 28007KT 00/M03 A3014 RMK A01 T00031032  RH  078%=      5-min Rain = 0
KFL1 131144Z 27005KT 00/M03 A3014 RMK A01 T00041031  RH  078%=      5-min Rain = 0
KFL1 131145Z 26006KT 00/M03 A3014 RMK A01 T00021033  RH  078%=      5-min Rain = 0
KFL1 131146Z 26006KT 00/M03 A3014 RMK A01 T00021032  RH  078%=      5-min Rain = 0
KFL1 131147Z 26005KT 00/M03 A3014 RMK A01 T00021031  RH  078%=      5-min Rain = 0
KFL1 131148Z 26005KT 00/M03 A3014 RMK A01 T00011032  RH  079%=      5-min Rain = 0
KFL1 131149Z 26005KT 00/M03 A3014 RMK A01 T00011032  RH  078%=      5-min Rain = 0
KFL1 131150Z 27005KT 00/M03 A3014 RMK A01 T00011031  RH  079%=      5-min Rain = 0
KFL1 131151Z 27005KT 00/M03 A3014 RMK A01 T00011032  RH  079%=      5-min Rain = 0
KFL1 131152Z 26004KT 00/03 A3014 RMK A01 T00-00-32  RH  079%=      5-min Rain = 0
KFL1 131153Z 26004KT 00/03 A3014 RMK A01 T00-00-30  RH  080%=      5-min Rain = 0
KFL1 131154Z 27004KT M00/M03 A3014 RMK A01 T10011031  RH  080%=      5-min Rain = 0
KFL1 131155Z 28005KT M00/M03 A3014 RMK A01 T10021032  RH  080%=      5-min Rain = 0
KFL1 131156Z 28006KT 00/03 A3014 RMK A01 T00-00-31  RH  080%=      5-min Rain = 0
KFL1 131157Z 29006KT 00/M03 A3014 RMK A01 T00021029  RH  080%=      5-min Rain = 0
KFL1 131158Z 29005KT 00/M03 A3014 RMK A01 T00021029  RH  080%=      5-min Rain = 0
KFL1 131159Z 29006KT 00/M03 A3014 RMK A01 T00021030  RH  079%=      5-min Rain = 0
KFL1 131200Z 28007KT 00/M03 A3014 RMK A01 T00031029  RH  079%=      5-min Rain = 0
KFL1 131201Z 28007KT 00/M03 A3015 RMK A01 T00031030  RH  079%=      5-min Rain = 0
KFL1 131202Z 27006KT 00/M03 A3014 RMK A01 T00031029  RH  079%=      5-min Rain = 0
KFL1 131203Z 28006KT 00/M03 A3014 RMK A01 T00041028  RH  079%=      5-min Rain = 0
KFL1 131204Z 27006KT 00/M03 A3015 RMK A01 T00041029  RH  079%=      5-min Rain = 0
KFL1 131205Z 26006KT 01/M03 A3014 RMK A01 T00051028  RH  079%=      5-min Rain = 0
KFL1 131206Z 26006KT 00/M03 A3014 RMK A01 T00041029  RH  079%=      5-min Rain = 0
KFL1 131207Z 25006KT 00/M03 A3014 RMK A01 T00031030  RH  079%=      5-min Rain = 0
KFL1 131208Z 25005KT 00/M03 A3014 RMK A01 T00031030  RH  079%=      5-min Rain = 0
KFL1 131209Z 26005KT 00/M03 A3014 RMK A01 T00021030  RH  079%=      5-min Rain = 0
KFL1 131210Z 27005KT 00/M03 A3014 RMK A01 T00031028  RH  079%=      5-min Rain = 0
KFL1 131211Z 28005KT 00/M03 A3015 RMK A01 T00021030  RH  079%=      5-min Rain = 0
KFL1 131212Z 28005KT 00/M03 A3015 RMK A01 T00021029  RH  080%=      5-min Rain = 0
KFL1 131213Z 28006KT 00/M03 A3015 RMK A01 T00011029  RH  080%=      5-min Rain = 0
KFL1 131214Z 27006KT 00/M03 A3015 RMK A01 T00021028  RH  080%=      5-min Rain = 0
KFL1 131215Z 27007KT 00/M03 A3015 RMK A01 T00041026  RH  080%=      5-min Rain = 0
KFL1 131216Z 27006KT 00/M03 A3016 RMK A01 T00031027  RH  080%=      5-min Rain = 0
KFL1 131217Z 26006KT 00/M03 A3015 RMK A01 T00021028  RH  080%=      5-min Rain = 0
KFL1 131218Z 26006KT 00/M03 A3015 RMK A01 T00021028  RH  080%=      5-min Rain = 0
KFL1 131219Z 25006KT 00/M03 A3015 RMK A01 T00021028  RH  080%=      5-min Rain = 0
KFL1 131220Z 26006KT 00/M03 A3014 RMK A01 T00021028  RH  080%=      5-min Rain = 0
KFL1 131221Z 26005KT 00/M03 A3014 RMK A01 T00031027  RH  080%=      5-min Rain = 0
KFL1 131222Z 27004KT 00/M03 A3014 RMK A01 T00031028  RH  080%=      5-min Rain = 0
KFL1 131223Z 27004KT 00/M03 A3014 RMK A01 T00021029  RH  080%=      5-min Rain = 0
KFL1 131224Z 27004KT 00/M03 A3014 RMK A01 T00011029  RH  080%=      5-min Rain = 0
KFL1 131225Z 28006KT 00/M03 A3014 RMK A01 T00021028  RH  080%=      5-min Rain = 0
KFL1 131226Z 30007KT 00/M03 A3014 RMK A01 T00031027  RH  080%=      5-min Rain = 0
KFL1 131227Z 28004KT 00/M03 A3014 RMK A01 T00031027  RH  080%=      5-min Rain = 0
KFL1 131228Z 27006KT 00/M03 A3013 RMK A01 T00041026  RH  080%=      5-min Rain = 0
KFL1 131229Z 26007KT 01/M03 A3014 RMK A01 T00051027  RH  079%=      5-min Rain = 0
KFL1 131230Z 27007KT 01/M03 A3014 RMK A01 T00051026  RH  079%=      5-min Rain = 0
KFL1 131231Z 27006KT 00/M03 A3014 RMK A01 T00041028  RH  079%=      5-min Rain = 0
KFL1 131232Z 27006KT 00/M03 A3014 RMK A01 T00011031  RH  079%=      5-min Rain = 0
KFL1 131233Z 27005KT 00/03 A3014 RMK A01 T00000-31  RH  080%=      5-min Rain = 0
KFL1 131234Z 27004KT 00/03 A3014 RMK A01 T00-00-30  RH  080%=      5-min Rain = 0
KFL1 131235Z 28004KT 00/M03 A3014 RMK A01 T00011028  RH  081%=      5-min Rain = 0
KFL1 131236Z 28004KT 00/M03 A3014 RMK A01 T00011029  RH  081%=      5-min Rain = 0
KFL1 131237Z 29004KT 00/03 A3014 RMK A01 T00000-29  RH  081%=      5-min Rain = 0
KFL1 131238Z 28004KT 00/M03 A3014 RMK A01 T00021028  RH  081%=      5-min Rain = 0
KFL1 131239Z 28005KT 00/03 A3014 RMK A01 T00000-29  RH  080%=      5-min Rain = 0
KFL1 131240Z 28006KT 00/M03 A3014 RMK A01 T00011029  RH  080%=      5-min Rain = 0
KFL1 131241Z 28007KT 00/M03 A3014 RMK A01 T00021028  RH  080%=      5-min Rain = 0
KFL1 131242Z 27005KT 00/M03 A3014 RMK A01 T00041026  RH  080%=      5-min Rain = 0
KFL1 131243Z 29005KT 00/M03 A3014 RMK A01 T00041027  RH  080%=      5-min Rain = 0
KFL1 131244Z 29006KT 00/M03 A3014 RMK A01 T00041028  RH  079%=      5-min Rain = 0
KFL1 131245Z 27006KT 01/M03 A3014 RMK A01 T00061026  RH  079%=      5-min Rain = 0
KFL1 131246Z 28007KT 01/M03 A3014 RMK A01 T00051028  RH  079%=      5-min Rain = 0
KFL1 131247Z 27007KT 01/M03 A3014 RMK A01 T00071026  RH  078%=      5-min Rain = 0
KFL1 131248Z 27006KT 01/M03 A3014 RMK A01 T00071027  RH  078%=      5-min Rain = 0
KFL1 131249Z 28005KT 01/M03 A3014 RMK A01 T00061029  RH  078%=      5-min Rain = 0
KFL1 131250Z 29006KT 01/M03 A3014 RMK A01 T00061028  RH  078%=      5-min Rain = 0
KFL1 131251Z 29006KT 01/M03 A3015 RMK A01 T00061027  RH  078%=      5-min Rain = 0
KFL1 131252Z 28007KT 01/M03 A3015 RMK A01 T00061027  RH  079%=      5-min Rain = 0
KFL1 131253Z 29007KT 01/M03 A3014 RMK A01 T00061027  RH  079%=      5-min Rain = 0
KFL1 131254Z 30009KT 01/M03 A3014 RMK A01 T00051028  RH  078%=      5-min Rain = 0
KFL1 131255Z 29008KT 01/M03 A3014 RMK A01 T00061028  RH  078%=      5-min Rain = 0
KFL1 131256Z 30009KT 01/M03 A3014 RMK A01 T00051029  RH  078%=      5-min Rain = 0
KFL1 131257Z 30007KT 01/M03 A3014 RMK A01 T00061029  RH  078%=      5-min Rain = 0
KFL1 131258Z 29007KT 01/M03 A3014 RMK A01 T00061028  RH  078%=      5-min Rain = 0
KFL1 131259Z 28006KT 01/M03 A3014 RMK A01 T00071027  RH  078%=      5-min Rain = 0
KFL1 131300Z 26005KT 01/M03 A3014 RMK A01 T00071027  RH  078%=      5-min Rain = 0
KFL1 131301Z 27006KT 01/M03 A3014 RMK A01 T00071027  RH  078%=      5-min Rain = 0
KFL1 131302Z 28006KT 01/M03 A3014 RMK A01 T00071028  RH  077%=      5-min Rain = 0
KFL1 131303Z 30007KT 01/M03 A3014 RMK A01 T00071028  RH  077%=      5-min Rain = 0
KFL1 131304Z 29006KT 01/M03 A3014 RMK A01 T00071028  RH  077%=      5-min Rain = 0
KFL1 131305Z 29007KT 01/M03 A3015 RMK A01 T00081027  RH  077%=      5-min Rain = 0
KFL1 131306Z 31008KT 01/M03 A3015 RMK A01 T00071028  RH  077%=      5-min Rain = 0
KFL1 131307Z 31008KT 01/M03 A3015 RMK A01 T00081028  RH  077%=      5-min Rain = 0
KFL1 131308Z 31008KT 01/M03 A3015 RMK A01 T00091027  RH  077%=      5-min Rain = 0
KFL1 131309Z 30009KT 01/M03 A3014 RMK A01 T00081028  RH  076%=      5-min Rain = 0
KFL1 131310Z 28007KT 01/M03 A3014 RMK A01 T00081028  RH  076%=      5-min Rain = 0
KFL1 131311Z 28008KT 01/M03 A3014 RMK A01 T00091028  RH  076%=      5-min Rain = 0
KFL1 131312Z 28006KT 01/M03 A3014 RMK A01 T00091028  RH  076%=      5-min Rain = 0
KFL1 131313Z 29007KT 01/M03 A3014 RMK A01 T00091028  RH  076%=      5-min Rain = 0
KFL1 131314Z 30009KT 01/M03 A3014 RMK A01 T00071030  RH  076%=      5-min Rain = 0
KFL1 131315Z 30008KT 01/M03 A3014 RMK A01 T00071030  RH  076%=      5-min Rain = 0
KFL1 131316Z 30010KT 01/M03 A3015 RMK A01 T00081029  RH  077%=      5-min Rain = 0
KFL1 131317Z 30008KT 01/M03 A3015 RMK A01 T00081028  RH  077%=      5-min Rain = 0
KFL1 131318Z 29009KT 01/M03 A3015 RMK A01 T00091027  RH  077%=      5-min Rain = 0
KFL1 131319Z 29007KT 01/M03 A3014 RMK A01 T00071027  RH  078%=      5-min Rain = 0
KFL1 131320Z 28008KT 01/M03 A3014 RMK A01 T00081027  RH  077%=      5-min Rain = 0
KFL1 131321Z 28009KT 01/M03 A3014 RMK A01 T00071029  RH  077%=      5-min Rain = 0
KFL1 131322Z 29009KT 01/M03 A3014 RMK A01 T00071029  RH  076%=      5-min Rain = 0
KFL1 131323Z 30010KT 01/M03 A3015 RMK A01 T00071030  RH  076%=      5-min Rain = 0
KFL1 131324Z 30008KT 01/M03 A3015 RMK A01 T00081029  RH  076%=      5-min Rain = 0
KFL1 131325Z 30008KT 01/M03 A3015 RMK A01 T00071029  RH  077%=      5-min Rain = 0
KFL1 131326Z 30008KT 01/M03 A3014 RMK A01 T00071029  RH  077%=      5-min Rain = 0
KFL1 131327Z 29006KT 01/M03 A3014 RMK A01 T00071029  RH  077%=      5-min Rain = 0
KFL1 131328Z 30007KT 01/M03 A3014 RMK A01 T00081028  RH  077%=      5-min Rain = 0
KFL1 131329Z 31008KT 01/M03 A3014 RMK A01 T00071029  RH  077%=      5-min Rain = 0
KFL1 131330Z 31009KT 01/M03 A3014 RMK A01 T00061030  RH  076%=      5-min Rain = 0
KFL1 131331Z 30009KT 01/M03 A3014 RMK A01 T00081029  RH  077%=      5-min Rain = 0
KFL1 131332Z 31007KT 01/M03 A3014 RMK A01 T00081029  RH  077%=      5-min Rain = 0
KFL1 131333Z 30007KT 01/M03 A3014 RMK A01 T00091028  RH  076%=      5-min Rain = 0
KFL1 131334Z 31008KT 01/M03 A3014 RMK A01 T00081029  RH  076%=      5-min Rain = 0
KFL1 131335Z 30009KT 01/M03 A3014 RMK A01 T00081029  RH  076%=      5-min Rain = 0
KFL1 131336Z 30009KT 01/M03 A3015 RMK A01 T00081031  RH  076%=      5-min Rain = 0
KFL1 131337Z 31007KT 01/M03 A3015 RMK A01 T00091030  RH  076%=      5-min Rain = 0
KFL1 131338Z 31009KT 01/M03 A3015 RMK A01 T00081030  RH  076%=      5-min Rain = 0
KFL1 131339Z 31010KT 01/M03 A3015 RMK A01 T00091029  RH  076%=      5-min Rain = 0
KFL1 131340Z 31008KT 01/M03 A3015 RMK A01 T00081030  RH  076%=      5-min Rain = 0
KFL1 131341Z 31007KT 01/M03 A3014 RMK A01 T00091029  RH  076%=      5-min Rain = 0
KFL1 131342Z 31007KT 01/M03 A3015 RMK A01 T00091029  RH  076%=      5-min Rain = 0
KFL1 131343Z 31008KT 01/M03 A3015 RMK A01 T00101028  RH  076%=      5-min Rain = 0
KFL1 131344Z 30008KT 01/M03 A3015 RMK A01 T00091029  RH  076%=      5-min Rain = 0
KFL1 131345Z 29007KT 01/M03 A3015 RMK A01 T00081029  RH  076%=      5-min Rain = 0
KFL1 131346Z 29008KT 01/M03 A3015 RMK A01 T00071029  RH  077%=      5-min Rain = 0
KFL1 131347Z 29008KT 01/M03 A3015 RMK A01 T00061029  RH  077%=      5-min Rain = 0
KFL1 131348Z 29007KT 01/M03 A3014 RMK A01 T00081028  RH  077%=      5-min Rain = 0
KFL1 131349Z 29008KT 01/M03 A3014 RMK A01 T00071028  RH  077%=      5-min Rain = 0
KFL1 131350Z 29009KT 01/M03 A3014 RMK A01 T00071028  RH  077%=      5-min Rain = 0
KFL1 131351Z 29008KT 01/M03 A3014 RMK A01 T00071029  RH  077%=      5-min Rain = 0
KFL1 131352Z 29007KT 01/M03 A3014 RMK A01 T00071029  RH  077%=      5-min Rain = 0
KFL1 131353Z 29008KT 01/M03 A3014 RMK A01 T00071028  RH  078%=      5-min Rain = 0
KFL1 131354Z 29007KT 01/M03 A3015 RMK A01 T00061029  RH  078%=      5-min Rain = 0
KFL1 131355Z 29008KT 01/M03 A3015 RMK A01 T00061028  RH  078%=      5-min Rain = 0
KFL1 131356Z 29007KT 01/M03 A3015 RMK A01 T00061028  RH  078%=      5-min Rain = 0
KFL1 131357Z 30008KT 00/M03 A3015 RMK A01 T00041029  RH  078%=      5-min Rain = 0
KFL1 131358Z 30008KT 01/M03 A3015 RMK A01 T00051028  RH  079%=      5-min Rain = 0
KFL1 131359Z 30007KT 00/M03 A3015 RMK A01 T00041029  RH  078%=      5-min Rain = 0
KFL1 131400Z 29007KT 01/M03 A3015 RMK A01 T00051029  RH  078%=      5-min Rain = 0
KFL1 131401Z 30007KT 01/M03 A3015 RMK A01 T00051029  RH  078%=      5-min Rain = 0
KFL1 131402Z 29007KT 01/M03 A3015 RMK A01 T00071027  RH  078%=      5-min Rain = 0
KFL1 131403Z 29007KT 01/M03 A3016 RMK A01 T00051029  RH  078%=      5-min Rain = 0
KFL1 131404Z 29009KT 01/M03 A3015 RMK A01 T00061029  RH  078%=      5-min Rain = 0
KFL1 131405Z 29007KT 01/M03 A3015 RMK A01 T00051030  RH  078%=      5-min Rain = 0
KFL1 131406Z 29009KT 01/M03 A3015 RMK A01 T00071028  RH  078%=      5-min Rain = 0
KFL1 131407Z 29009KT 01/M03 A3015 RMK A01 T00071028  RH  078%=      5-min Rain = 0
KFL1 131408Z 28008KT 01/M03 A3016 RMK A01 T00071029  RH  077%=      5-min Rain = 0
KFL1 131409Z 29007KT 01/M03 A3015 RMK A01 T00071029  RH  077%=      5-min Rain = 0
KFL1 131410Z 29008KT 01/M03 A3015 RMK A01 T00071028  RH  077%=      5-min Rain = 0
KFL1 131411Z 29008KT 01/M03 A3016 RMK A01 T00081028  RH  077%=      5-min Rain = 0
KFL1 131412Z 29008KT 01/M03 A3016 RMK A01 T00071029  RH  077%=      5-min Rain = 0
KFL1 131413Z 28008KT 01/M03 A3016 RMK A01 T00071029  RH  077%=      5-min Rain = 0
KFL1 131414Z 28009KT 01/M03 A3016 RMK A01 T00071029  RH  077%=      5-min Rain = 0
KFL1 131415Z 28009KT 01/M03 A3016 RMK A01 T00081028  RH  077%=      5-min Rain = 0
KFL1 131416Z 28007KT 01/M03 A3016 RMK A01 T00071029  RH  077%=      5-min Rain = 0
KFL1 131417Z 28008KT 01/M03 A3016 RMK A01 T00071028  RH  077%=      5-min Rain = 0
KFL1 131418Z 28007KT 01/M03 A3016 RMK A01 T00081028  RH  077%=      5-min Rain = 0
KFL1 131419Z 28007KT 01/M03 A3016 RMK A01 T00081028  RH  077%=      5-min Rain = 0
KFL1 131420Z 28007KT 01/M03 A3016 RMK A01 T00071028  RH  077%=      5-min Rain = 0
KFL1 131421Z 28008KT 01/M03 A3016 RMK A01 T00071029  RH  077%=      5-min Rain = 0
KFL1 131422Z 28007KT 01/M03 A3016 RMK A01 T00081028  RH  077%=      5-min Rain = 0
KFL1 131423Z 28008KT 01/M03 A3016 RMK A01 T00081029  RH  077%=      5-min Rain = 0
KFL1 131424Z 28008KT 01/M03 A3016 RMK A01 T00091028  RH  076%=      5-min Rain = 0
KFL1 131425Z 28008KT 01/M03 A3016 RMK A01 T00091028  RH  076%=      5-min Rain = 0
KFL1 131426Z 28009KT 01/M03 A3016 RMK A01 T00101027  RH  076%=      5-min Rain = 0
KFL1 131427Z 28009KT 01/M03 A3016 RMK A01 T00101028  RH  076%=      5-min Rain = 0
KFL1 131428Z 28008KT 01/M03 A3016 RMK A01 T00091029  RH  076%=      5-min Rain = 0
KFL1 131429Z 28007KT 01/M03 A3016 RMK A01 T00081029  RH  076%=      5-min Rain = 0
KFL1 131430Z 28007KT 01/M03 A3016 RMK A01 T00081028  RH  076%=      5-min Rain = 0
KFL1 131431Z 28009KT 01/M03 A3016 RMK A01 T00091028  RH  076%=      5-min Rain = 0
KFL1 131432Z 28009KT 01/M03 A3016 RMK A01 T00101028  RH  076%=      5-min Rain = 0
KFL1 131433Z 29009KT 01/M03 A3016 RMK A01 T00091029  RH  076%=      5-min Rain = 0
KFL1 131434Z 29009KT 01/M03 A3016 RMK A01 T00081029  RH  076%=      5-min Rain = 0
KFL1 131435Z 29008KT 01/M03 A3016 RMK A01 T00071029  RH  077%=      5-min Rain = 0
KFL1 131436Z 29008KT 01/M03 A3016 RMK A01 T00081027  RH  077%=      5-min Rain = 0
KFL1 131437Z 29009KT 01/M03 A3016 RMK A01 T00071028  RH  077%=      5-min Rain = 0
KFL1 131438Z 29009KT 01/M03 A3016 RMK A01 T00071028  RH  077%=      5-min Rain = 0
KFL1 131439Z 29008KT 01/M03 A3016 RMK A01 T00081028  RH  077%=      5-min Rain = 0
KFL1 131440Z 30009KT 01/M03 A3016 RMK A01 T00071029  RH  077%=      5-min Rain = 0
KFL1 131441Z 30008KT 01/M03 A3016 RMK A01 T00081028  RH  077%=      5-min Rain = 0
KFL1 131442Z 30009KT 01/M03 A3016 RMK A01 T00061029  RH  077%=      5-min Rain = 0
KFL1 131443Z 30009KT 01/M03 A3016 RMK A01 T00071028  RH  077%=      5-min Rain = 0
KFL1 131444Z 30008KT 01/M03 A3015 RMK A01 T00081029  RH  077%=      5-min Rain = 0
KFL1 131445Z 30008KT 01/M03 A3015 RMK A01 T00071030  RH  076%=      5-min Rain = 0
KFL1 131446Z 30009KT 01/M03 A3016 RMK A01 T00081030  RH  076%=      5-min Rain = 0
KFL1 131447Z 30010KT 01/M03 A3016 RMK A01 T00081030  RH  076%=      5-min Rain = 0
KFL1 131448Z 29010KT 01/M03 A3016 RMK A01 T00081031  RH  075%=      5-min Rain = 0
KFL1 131449Z 29009KT 01/M03 A3016 RMK A01 T00081030  RH  075%=      5-min Rain = 0
KFL1 131450Z 30007KT 01/M03 A3016 RMK A01 T00081030  RH  075%=      5-min Rain = 0
KFL1 131451Z 30009KT 01/M03 A3016 RMK A01 T00091030  RH  075%=      5-min Rain = 0
KFL1 131452Z 30009KT 01/M03 A3016 RMK A01 T00091031  RH  075%=      5-min Rain = 0
KFL1 131453Z 30009KT 01/M03 A3016 RMK A01 T00091031  RH  075%=      5-min Rain = 0
KFL1 131454Z 30008KT 01/M03 A3016 RMK A01 T00091030  RH  075%=      5-min Rain = 0
KFL1 131455Z 30007KT 01/M03 A3015 RMK A01 T00091031  RH  075%=      5-min Rain = 0
KFL1 131456Z 30009KT 01/M03 A3015 RMK A01 T00091031  RH  075%=      5-min Rain = 0
KFL1 131457Z 30008KT 01/M03 A3015 RMK A01 T00081031  RH  075%=      5-min Rain = 0
KFL1 131458Z 30009KT 01/M03 A3015 RMK A01 T00071033  RH  075%=      5-min Rain = 0
KFL1 131459Z 30008KT 01/M03 A3016 RMK A01 T00071033  RH  074%=      5-min Rain = 0
KFL1 131500Z 29008KT 01/M03 A3016 RMK A01 T00081032  RH  074%=      5-min Rain = 0
KFL1 131501Z 29008KT 01/M03 A3016 RMK A01 T00091031  RH  075%=      5-min Rain = 0
KFL1 131502Z 30009KT 01/M03 A3016 RMK A01 T00091032  RH  074%=      5-min Rain = 0
KFL1 131503Z 30009KT 01/M03 A3016 RMK A01 T00121029  RH  074%=      5-min Rain = 0
KFL1 131504Z 30010KT 01/M03 A3016 RMK A01 T00121030  RH  073%=      5-min Rain = 0
KFL1 131505Z 30011KT 01/M03 A3016 RMK A01 T00121031  RH  073%=      5-min Rain = 0
KFL1 131506Z 30010KT 01/M03 A3016 RMK A01 T00141030  RH  072%=      5-min Rain = 0
KFL1 131507Z 30010KT 02/M03 A3016 RMK A01 T00151029  RH  072%=      5-min Rain = 0
KFL1 131508Z 30012KT 02/M03 A3016 RMK A01 T00151030  RH  072%=      5-min Rain = 0
KFL1 131509Z 29011KT 02/M03 A3016 RMK A01 T00171029  RH  072%=      5-min Rain = 0
KFL1 131510Z 29011KT 02/M03 A3016 RMK A01 T00171028  RH  072%=      5-min Rain = 0
KFL1 131511Z 30012KT 02/M03 A3016 RMK A01 T00171029  RH  071%=      5-min Rain = 0
KFL1 131512Z 30011KT 02/M03 A3016 RMK A01 T00171030  RH  071%=      5-min Rain = 0
KFL1 131513Z 30012KT 02/M03 A3016 RMK A01 T00191029  RH  071%=      5-min Rain = 0
KFL1 131514Z 30012KT 02/M03 A3016 RMK A01 T00191030  RH  070%=      5-min Rain = 0
KFL1 131515Z 31011KT 02/M03 A3016 RMK A01 T00181032  RH  070%=      5-min Rain = 0
KFL1 131516Z 31009KT 02/M03 A3016 RMK A01 T00191030  RH  070%=      5-min Rain = 0
KFL1 131517Z 30010KT 02/M03 A3016 RMK A01 T00201029  RH  070%=      5-min Rain = 0
KFL1 131518Z 30010KT 02/M03 A3016 RMK A01 T00211029  RH  070%=      5-min Rain = 0
KFL1 131519Z 30012KT 02/M03 A3016 RMK A01 T00211028  RH  070%=      5-min Rain = 0
KFL1 131520Z 30014G19KT 02/M03 A3016 RMK A01 T00201030  RH  069%=      5-min Rain = 0
KFL1 131521Z 30013KT 02/M03 A3016 RMK A01 T00201031  RH  069%=      5-min Rain = 0
KFL1 131522Z 30013KT 02/M03 A3016 RMK A01 T00221030  RH  068%=      5-min Rain = 0
KFL1 131523Z 30013KT 02/M03 A3016 RMK A01 T00231030  RH  068%=      5-min Rain = 0
KFL1 131524Z 30012KT 02/M03 A3016 RMK A01 T00231029  RH  068%=      5-min Rain = 0
KFL1 131525Z 29011KT 02/M03 A3016 RMK A01 T00221029  RH  069%=      5-min Rain = 0
KFL1 131526Z 30012KT 02/M03 A3016 RMK A01 T00201030  RH  069%=      5-min Rain = 0
KFL1 131527Z 30012KT 02/M03 A3016 RMK A01 T00201030  RH  069%=      5-min Rain = 0
KFL1 131528Z 31011KT 02/M03 A3016 RMK A01 T00191031  RH  070%=      5-min Rain = 0
KFL1 131529Z 30012KT 02/M03 A3016 RMK A01 T00201032  RH  069%=      5-min Rain = 0
KFL1 131530Z 30010KT 02/M03 A3016 RMK A01 T00221031  RH  068%=      5-min Rain = 0
KFL1 131531Z 30011KT 02/M03 A3016 RMK A01 T00221032  RH  068%=      5-min Rain = 0
KFL1 131532Z 30012G17KT 02/M03 A3016 RMK A01 T00221032  RH  067%=      5-min Rain = 0
KFL1 131533Z 30014KT 02/M03 A3016 RMK A01 T00231032  RH  067%=      5-min Rain = 0
KFL1 131534Z 30014KT 03/M03 A3016 RMK A01 T00251030  RH  067%=      5-min Rain = 0
KFL1 131535Z 30012KT 02/M03 A3016 RMK A01 T00221033  RH  067%=      5-min Rain = 0
KFL1 131536Z 30012KT 02/M03 A3016 RMK A01 T00231032  RH  067%=      5-min Rain = 0
KFL1 131537Z 29012KT 02/M03 A3016 RMK A01 T00231032  RH  067%=      5-min Rain = 0
KFL1 131538Z 31014KT 02/M03 A3016 RMK A01 T00221033  RH  067%=      5-min Rain = 0
KFL1 131539Z 29014KT 02/M03 A3016 RMK A01 T00221033  RH  067%=      5-min Rain = 0
KFL1 131540Z 29015KT 02/M03 A3016 RMK A01 T00231032  RH  067%=      5-min Rain = 0
KFL1 131541Z 30014KT 02/M03 A3016 RMK A01 T00231032  RH  067%=      5-min Rain = 0
KFL1 131542Z 29010KT 02/M03 A3016 RMK A01 T00211033  RH  067%=      5-min Rain = 0
KFL1 131543Z 29011KT 02/M03 A3016 RMK A01 T00201033  RH  068%=      5-min Rain = 0
KFL1 131544Z 28011KT 02/M03 A3016 RMK A01 T00221034  RH  067%=      5-min Rain = 0
KFL1 131545Z 29016KT 02/M03 A3016 RMK A01 T00231033  RH  066%=      5-min Rain = 0
KFL1 131546Z 29015KT 02/M03 A3016 RMK A01 T00211034  RH  067%=      5-min Rain = 0
KFL1 131547Z 29015KT 02/M03 A3016 RMK A01 T00211034  RH  067%=      5-min Rain = 0
KFL1 131548Z 29013KT 02/M04 A3016 RMK A01 T00211035  RH  066%=      5-min Rain = 0
KFL1 131549Z 29014KT 02/M03 A3016 RMK A01 T00221034  RH  066%=      5-min Rain = 0
KFL1 131550Z 29015KT 02/M03 A3016 RMK A01 T00231034  RH  066%=      5-min Rain = 0
KFL1 131551Z 28014KT 03/M03 A3016 RMK A01 T00251034  RH  065%=      5-min Rain = 0
KFL1 131552Z 29013KT 02/M04 A3016 RMK A01 T00241036  RH  064%=      5-min Rain = 0
KFL1 131553Z 29014KT 03/M03 A3016 RMK A01 T00271034  RH  064%=      5-min Rain = 0
KFL1 131554Z 29015KT 03/M04 A3016 RMK A01 T00261035  RH  064%=      5-min Rain = 0
KFL1 131555Z 28016KT 03/M04 A3016 RMK A01 T00271035  RH  064%=      5-min Rain = 0
KFL1 131556Z 30019KT 03/M04 A3016 RMK A01 T00261036  RH  064%=      5-min Rain = 0
KFL1 131557Z 30021KT 03/M04 A3016 RMK A01 T00271036  RH  063%=      5-min Rain = 0
KFL1 131558Z 29018KT 03/M04 A3016 RMK A01 T00281036  RH  063%=      5-min Rain = 0
KFL1 131559Z 30018KT 03/M04 A3016 RMK A01 T00271038  RH  062%=      5-min Rain = 0
KFL1 131600Z 28017KT 03/M04 A3016 RMK A01 T00281038  RH  062%=      5-min Rain = 0
KFL1 131601Z 29016KT 03/M04 A3016 RMK A01 T00281037  RH  062%=      5-min Rain = 0
KFL1 131602Z 30017G25KT 03/M04 A3017 RMK A01 T00281036  RH  063%=      5-min Rain = 0
KFL1 131603Z 30018G23KT 03/M04 A3016 RMK A01 T00281037  RH  062%=      5-min Rain = 0
KFL1 131604Z 29015KT 03/M04 A3016 RMK A01 T00281037  RH  062%=      5-min Rain = 0
KFL1 131605Z 30015KT 03/M04 A3017 RMK A01 T00271038  RH  062%=      5-min Rain = 0
KFL1 131606Z 30021KT 03/M04 A3016 RMK A01 T00281037  RH  062%=      5-min Rain = 0
KFL1 131607Z 30016KT 03/M04 A3016 RMK A01 T00291037  RH  062%=      5-min Rain = 0
KFL1 131608Z 29012KT 03/M04 A3016 RMK A01 T00301037  RH  062%=      5-min Rain = 0
KFL1 131609Z 29013G19KT 03/M04 A3016 RMK A01 T00311036  RH  062%=      5-min Rain = 0
KFL1 131610Z 30012KT 03/M04 A3016 RMK A01 T00291037  RH  062%=      5-min Rain = 0
KFL1 131611Z 29017G24KT 03/M04 A3017 RMK A01 T00301036  RH  062%=      5-min Rain = 0
KFL1 131612Z 29015KT 03/M04 A3016 RMK A01 T00291039  RH  061%=      5-min Rain = 0
KFL1 131613Z 30015KT 03/M04 A3016 RMK A01 T00291038  RH  061%=      5-min Rain = 0
KFL1 131614Z 29015KT 03/M04 A3016 RMK A01 T00301038  RH  061%=      5-min Rain = 0
KFL1 131615Z 30014KT 03/M04 A3016 RMK A01 T00311037  RH  061%=      5-min Rain = 0
KFL1 131616Z 29016KT 03/M04 A3017 RMK A01 T00311038  RH  061%=      5-min Rain = 0
KFL1 131617Z 30016KT 03/M04 A3017 RMK A01 T00311038  RH  060%=      5-min Rain = 0
KFL1 131618Z 29016G22KT 03/M04 A3016 RMK A01 T00311038  RH  061%=      5-min Rain = 0
KFL1 131619Z 29014KT 03/M04 A3017 RMK A01 T00301038  RH  061%=      5-min Rain = 0
KFL1 131620Z 30014KT 03/M04 A3017 RMK A01 T00311037  RH  061%=      5-min Rain = 0
KFL1 131621Z 29016G21KT 03/M04 A3017 RMK A01 T00301039  RH  061%=      5-min Rain = 0
KFL1 131622Z 30012KT 03/M04 A3017 RMK A01 T00311038  RH  060%=      5-min Rain = 0
KFL1 131623Z 29014G19KT 03/M04 A3017 RMK A01 T00311036  RH  061%=      5-min Rain = 0
KFL1 131624Z 31019G25KT 03/M04 A3017 RMK A01 T00321037  RH  061%=      5-min Rain = 0
KFL1 131625Z 30015KT 03/M04 A3017 RMK A01 T00331038  RH  060%=      5-min Rain = 0
KFL1 131626Z 30014KT 03/M04 A3017 RMK A01 T00331038  RH  059%=      5-min Rain = 0
KFL1 131627Z 31012KT 03/M04 A3017 RMK A01 T00331038  RH  059%=      5-min Rain = 0
KFL1 131628Z 30015KT 03/M04 A3017 RMK A01 T00341038  RH  059%=      5-min Rain = 0
KFL1 131629Z 30015KT 03/M04 A3017 RMK A01 T00331039  RH  059%=      5-min Rain = 0
KFL1 131630Z 29015KT 03/M04 A3017 RMK A01 T00321038  RH  060%=      5-min Rain = 0
KFL1 131631Z 30014KT 03/M04 A3017 RMK A01 T00321039  RH  060%=      5-min Rain = 0
KFL1 131632Z 30016KT 03/M04 A3016 RMK A01 T00321038  RH  060%=      5-min Rain = 0
KFL1 131633Z 30018KT 03/M04 A3016 RMK A01 T00301040  RH  060%=      5-min Rain = 0
KFL1 131634Z 30018KT 03/M04 A3016 RMK A01 T00301040  RH  060%=      5-min Rain = 0
KFL1 131635Z 31014KT 03/M04 A3017 RMK A01 T00291042  RH  060%=      5-min Rain = 0
KFL1 131636Z 30014KT 03/M04 A3017 RMK A01 T00291041  RH  060%=      5-min Rain = 0
KFL1 131637Z 30016KT 03/M04 A3017 RMK A01 T00301040  RH  060%=      5-min Rain = 0
KFL1 131638Z 29015KT 03/M04 A3017 RMK A01 T00311040  RH  060%=      5-min Rain = 0
KFL1 131639Z 29018KT 03/M04 A3017 RMK A01 T00301041  RH  060%=      5-min Rain = 0
KFL1 131640Z 30014KT 03/M04 A3017 RMK A01 T00321040  RH  059%=      5-min Rain = 0
KFL1 131641Z 30012G18KT 03/M04 A3017 RMK A01 T00321039  RH  059%=      5-min Rain = 0
KFL1 131642Z 31016KT 03/M04 A3016 RMK A01 T00321040  RH  059%=      5-min Rain = 0
KFL1 131643Z 29017KT 03/M04 A3017 RMK A01 T00331041  RH  058%=      5-min Rain = 0
KFL1 131644Z 30014KT 03/M04 A3017 RMK A01 T00331041  RH  058%=      5-min Rain = 0
KFL1 131645Z 31013KT 03/M04 A3017 RMK A01 T00321042  RH  058%=      5-min Rain = 0
KFL1 131646Z 30013KT 03/M04 A3017 RMK A01 T00331039  RH  059%=      5-min Rain = 0
KFL1 131647Z 31015KT 03/M04 A3017 RMK A01 T00341040  RH  058%=      5-min Rain = 0
KFL1 131648Z 30013G18KT 03/M04 A3016 RMK A01 T00341041  RH  058%=      5-min Rain = 0
KFL1 131649Z 29016KT 03/M04 A3016 RMK A01 T00331043  RH  057%=      5-min Rain = 0
KFL1 131650Z 29013KT 03/M04 A3016 RMK A01 T00331042  RH  058%=      5-min Rain = 0
KFL1 131651Z 30011KT 03/M04 A3016 RMK A01 T00331041  RH  058%=      5-min Rain = 0
KFL1 131652Z 30014KT 03/M04 A3017 RMK A01 T00331042  RH  058%=      5-min Rain = 0
KFL1 131653Z 31016G21KT 03/M04 A3017 RMK A01 T00331043  RH  058%=      5-min Rain = 0
KFL1 131654Z 30016G21KT 03/M04 A3017 RMK A01 T00331044  RH  057%=      5-min Rain = 0
KFL1 131655Z 30014G20KT 03/M05 A3017 RMK A01 T00341045  RH  056%=      5-min Rain = 0
KFL1 131656Z 30019G26KT 04/M05 A3017 RMK A01 T00361045  RH  056%=      5-min Rain = 0
KFL1 131657Z 31017G22KT 04/M05 A3017 RMK A01 T00351047  RH  055%=      5-min Rain = 0
KFL1 131658Z 31019G26KT 04/M05 A3017 RMK A01 T00371048  RH  054%=      5-min Rain = 0
KFL1 131659Z 30019G24KT 04/M05 A3017 RMK A01 T00381046  RH  054%=      5-min Rain = 0
KFL1 131700Z 30019G24KT 04/M04 A3017 RMK A01 T00371044  RH  055%=      5-min Rain = 0
KFL1 131701Z 31016KT 04/M05 A3017 RMK A01 T00381045  RH  055%=      5-min Rain = 0
KFL1 131702Z 30020G25KT 04/M05 A3017 RMK A01 T00391045  RH  054%=      5-min Rain = 0
KFL1 131703Z 30020G26KT 04/M05 A3017 RMK A01 T00391046  RH  054%=      5-min Rain = 0
KFL1 131704Z 30018G25KT 04/M05 A3018 RMK A01 T00381048  RH  053%=      5-min Rain = 0
KFL1 131705Z 29016G21KT 04/M05 A3018 RMK A01 T00371048  RH  054%=      5-min Rain = 0
KFL1 131706Z 30019G28KT 04/M05 A3018 RMK A01 T00371047  RH  054%=      5-min Rain = 0
KFL1 131707Z 30022G28KT 04/M05 A3018 RMK A01 T00371048  RH  054%=      5-min Rain = 0
KFL1 131708Z 29020G26KT 04/M05 A3018 RMK A01 T00361048  RH  054%=      5-min Rain = 0
KFL1 131709Z 31019G27KT 04/M05 A3018 RMK A01 T00361046  RH  055%=      5-min Rain = 0
KFL1 131710Z 30013KT 04/M05 A3019 RMK A01 T00351048  RH  055%=      5-min Rain = 0
KFL1 131711Z 29022G27KT 04/M05 A3019 RMK A01 T00351045  RH  056%=      5-min Rain = 0
KFL1 131712Z 31017KT 03/M05 A3019 RMK A01 T00341045  RH  056%=      5-min Rain = 0
KFL1 131713Z 30019KT 03/M05 A3018 RMK A01 T00331047  RH  056%=      5-min Rain = 0
KFL1 131714Z 30023G29KT 04/M05 A3018 RMK A01 T00361049  RH  054%=      5-min Rain = 0
KFL1 131715Z 32022G27KT 04/M05 A3018 RMK A01 T00351050  RH  054%=      5-min Rain = 0
KFL1 131716Z 31024KT 04/M05 A3018 RMK A01 T00351046  RH  055%=      5-min Rain = 0
KFL1 131717Z 30018KT 03/M05 A3018 RMK A01 T00331049  RH  055%=      5-min Rain = 0
KFL1 131718Z 31017G23KT 03/M05 A3018 RMK A01 T00341049  RH  054%=      5-min Rain = 0
KFL1 131719Z 30017G25KT 03/M05 A3018 RMK A01 T00341048  RH  055%=      5-min Rain = 0
KFL1 131720Z 30017KT 03/M05 A3018 RMK A01 T00341047  RH  055%=      5-min Rain = 0
KFL1 131721Z 31017KT 03/M05 A3018 RMK A01 T00341046  RH  056%=      5-min Rain = 0
KFL1 131722Z 31016KT 03/M05 A3018 RMK A01 T00321048  RH  056%=      5-min Rain = 0
KFL1 131723Z 29016G25KT 03/M05 A3018 RMK A01 T00331046  RH  056%=      5-min Rain = 0
KFL1 131724Z 29014KT 03/M05 A3018 RMK A01 T00331049  RH  055%=      5-min Rain = 0
KFL1 131725Z 30011KT 03/M05 A3018 RMK A01 T00341047  RH  055%=      5-min Rain = 0
KFL1 131726Z 29016G23KT 03/M05 A3018 RMK A01 T00341045  RH  056%=      5-min Rain = 0
KFL1 131727Z 30018G24KT 03/M05 A3018 RMK A01 T00341047  RH  055%=      5-min Rain = 0
KFL1 131728Z 29014KT 04/M05 A3018 RMK A01 T00351047  RH  055%=      5-min Rain = 0
KFL1 131729Z 30017KT 04/M04 A3018 RMK A01 T00351044  RH  056%=      5-min Rain = 0
KFL1 131730Z 29019G24KT 03/M05 A3018 RMK A01 T00331049  RH  055%=      5-min Rain = 0
KFL1 131731Z 29016KT 03/M05 A3018 RMK A01 T00331049  RH  055%=      5-min Rain = 0
KFL1 131732Z 29019KT 03/M05 A3018 RMK A01 T00321047  RH  056%=      5-min Rain = 0
KFL1 131733Z 29018G23KT 03/M05 A3018 RMK A01 T00321048  RH  056%=      5-min Rain = 0
KFL1 131734Z 31022KT 03/M05 A3018 RMK A01 T00321047  RH  056%=      5-min Rain = 0
KFL1 131735Z 29017G23KT 03/M05 A3018 RMK A01 T00331046  RH  056%=      5-min Rain = 0
KFL1 131736Z 30016KT 03/M05 A3018 RMK A01 T00341047  RH  056%=      5-min Rain = 0
KFL1 131737Z 30019G24KT 03/M05 A3018 RMK A01 T00341049  RH  055%=      5-min Rain = 0
KFL1 131738Z 30017G23KT 04/M05 A3018 RMK A01 T00361049  RH  054%=      5-min Rain = 0
KFL1 131739Z 30013KT 04/M05 A3018 RMK A01 T00381048  RH  054%=      5-min Rain = 0
KFL1 131740Z 29015G21KT 04/M05 A3018 RMK A01 T00391046  RH  054%=      5-min Rain = 0
KFL1 131741Z 29017KT 04/M05 A3018 RMK A01 T00391047  RH  053%=      5-min Rain = 0
KFL1 131742Z 29020KT 04/M05 A3018 RMK A01 T00391049  RH  053%=      5-min Rain = 0
KFL1 131743Z 30015G23KT 04/M05 A3017 RMK A01 T00401051  RH  052%=      5-min Rain = 0
KFL1 131744Z 30013KT 04/M05 A3017 RMK A01 T00401049  RH  052%=      5-min Rain = 0
KFL1 131745Z 29016G21KT 04/M05 A3017 RMK A01 T00401047  RH  053%=      5-min Rain = 0
KFL1 131746Z 29019KT 04/M05 A3017 RMK A01 T00401050  RH  052%=      5-min Rain = 0
KFL1 131747Z 29018KT 04/M05 A3017 RMK A01 T00411050  RH  051%=      5-min Rain = 0
KFL1 131748Z 30019KT 04/M05 A3018 RMK A01 T00401053  RH  051%=      5-min Rain = 0
KFL1 131749Z 30019G24KT 04/M05 A3018 RMK A01 T00411051  RH  051%=      5-min Rain = 0
KFL1 131750Z 30018G25KT 04/M05 A3018 RMK A01 T00411050  RH  052%=      5-min Rain = 0
KFL1 131751Z 30019G26KT 04/M05 A3018 RMK A01 T00411048  RH  052%=      5-min Rain = 0
KFL1 131752Z 29022G28KT 04/M05 A3018 RMK A01 T00411051  RH  051%=      5-min Rain = 0
KFL1 131753Z 30016KT 04/M05 A3018 RMK A01 T00411051  RH  051%=      5-min Rain = 0
KFL1 131754Z 29016KT 04/M05 A3018 RMK A01 T00411048  RH  052%=      5-min Rain = 0
KFL1 131755Z 30022G27KT 04/M05 A3018 RMK A01 T00401048  RH  053%=      5-min Rain = 0
KFL1 131756Z 29016KT 04/M05 A3018 RMK A01 T00381049  RH  053%=      5-min Rain = 0
KFL1 131757Z 30012KT 04/M05 A3018 RMK A01 T00391049  RH  053%=      5-min Rain = 0
KFL1 131758Z 29013G18KT 04/M05 A3018 RMK A01 T00411048  RH  052%=      5-min Rain = 0
KFL1 131759Z 28019KT 04/M05 A3018 RMK A01 T00411047  RH  052%=      5-min Rain = 0
KFL1 131800Z 29022KT 04/M05 A3018 RMK A01 T00391051  RH  052%=      5-min Rain = 0
KFL1 131801Z 29017KT 04/M05 A3017 RMK A01 T00401051  RH  052%=      5-min Rain = 0
KFL1 131802Z 29019G25KT 04/M05 A3017 RMK A01 T00411049  RH  052%=      5-min Rain = 0
KFL1 131803Z 29018KT 04/M05 A3017 RMK A01 T00411048  RH  052%=      5-min Rain = 0
KFL1 131804Z 30019KT 04/M05 A3017 RMK A01 T00401045  RH  054%=      5-min Rain = 0
KFL1 131805Z 29024G31KT 04/M05 A3017 RMK A01 T00401048  RH  053%=      5-min Rain = 0
KFL1 131806Z 30025G31KT 04/M05 A3018 RMK A01 T00391048  RH  053%=      5-min Rain = 0
KFL1 131807Z 29022G28KT 04/M05 A3018 RMK A01 T00381047  RH  054%=      5-min Rain = 0
KFL1 131808Z 29020KT 04/M05 A3018 RMK A01 T00391047  RH  053%=      5-min Rain = 0
KFL1 131809Z 29023G31KT 04/M05 A3018 RMK A01 T00391047  RH  053%=      5-min Rain = 0
KFL1 131810Z 29019KT 04/M05 A3018 RMK A01 T00391047  RH  053%=      5-min Rain = 0
KFL1 131811Z 30019KT 04/M05 A3018 RMK A01 T00391048  RH  053%=      5-min Rain = 0
KFL1 131812Z 30020G27KT 04/M05 A3018 RMK A01 T00411048  RH  052%=      5-min Rain = 0
KFL1 131813Z 30018KT 04/M05 A3017 RMK A01 T00421049  RH  051%=      5-min Rain = 0
KFL1 131814Z 29021KT 04/M05 A3017 RMK A01 T00411049  RH  052%=      5-min Rain = 0
KFL1 131815Z 29016KT 04/M05 A3017 RMK A01 T00421049  RH  052%=      5-min Rain = 0
KFL1 131816Z 28015G22KT 04/M05 A3017 RMK A01 T00411050  RH  051%=      5-min Rain = 0
KFL1 131817Z 28022KT 04/M05 A3017 RMK A01 T00431050  RH  051%=      5-min Rain = 0
KFL1 131818Z 30014KT 04/M05 A3017 RMK A01 T00411053  RH  050%=      5-min Rain = 0
KFL1 131819Z 31014KT 04/M05 A3017 RMK A01 T00411052  RH  051%=      5-min Rain = 0
KFL1 131820Z 29016G25KT 04/M05 A3017 RMK A01 T00431049  RH  051%=      5-min Rain = 0
KFL1 131821Z 29020KT 04/M05 A3017 RMK A01 T00431049  RH  051%=      5-min Rain = 0
KFL1 131822Z 30018G24KT 04/M05 A3017 RMK A01 T00441053  RH  049%=      5-min Rain = 0
KFL1 131823Z 30016KT 04/M05 A3017 RMK A01 T00421052  RH  050%=      5-min Rain = 0
KFL1 131824Z 29021G28KT 04/M05 A3017 RMK A01 T00421052  RH  051%=      5-min Rain = 0
KFL1 131825Z 29023G33KT 04/M05 A3017 RMK A01 T00441050  RH  050%=      5-min Rain = 0
KFL1 131826Z 30023G29KT 04/M05 A3017 RMK A01 T00421053  RH  050%=      5-min Rain = 0
KFL1 131827Z 29018KT 04/M05 A3017 RMK A01 T00421050  RH  051%=      5-min Rain = 0
KFL1 131828Z 30021G31KT 04/M05 A3017 RMK A01 T00431051  RH  050%=      5-min Rain = 0
KFL1 131829Z 30024G32KT 04/M05 A3016 RMK A01 T00431053  RH  049%=      5-min Rain = 0
KFL1 131830Z 30020G28KT 04/M05 A3016 RMK A01 T00441052  RH  050%=      5-min Rain = 0
KFL1 131831Z 29024G29KT 04/M06 A3016 RMK A01 T00431055  RH  049%=      5-min Rain = 0
KFL1 131832Z 29021G27KT 04/M06 A3016 RMK A01 T00421055  RH  049%=      5-min Rain = 0
KFL1 131833Z 29023G29KT 04/M06 A3016 RMK A01 T00431055  RH  049%=      5-min Rain = 0
KFL1 131834Z 30016KT 04/M05 A3016 RMK A01 T00421054  RH  049%=      5-min Rain = 0
KFL1 131835Z 29015G20KT 04/M05 A3016 RMK A01 T00431052  RH  050%=      5-min Rain = 0
KFL1 131836Z 30015G20KT 04/M05 A3016 RMK A01 T00421051  RH  051%=      5-min Rain = 0
KFL1 131837Z 29013KT 04/M05 A3016 RMK A01 T00441051  RH  050%=      5-min Rain = 0
KFL1 131838Z 29013KT 05/M05 A3016 RMK A01 T00451051  RH  049%=      5-min Rain = 0
KFL1 131839Z 30014KT 05/M05 A3016 RMK A01 T00471051  RH  049%=      5-min Rain = 0
KFL1 131840Z 29012KT 05/M05 A3016 RMK A01 T00481049  RH  049%=      5-min Rain = 0
KFL1 131841Z 29012KT 05/M05 A3016 RMK A01 T00471053  RH  048%=      5-min Rain = 0
KFL1 131842Z 29013KT 05/M05 A3016 RMK A01 T00471049  RH  050%=      5-min Rain = 0
KFL1 131843Z 29012KT 05/M05 A3015 RMK A01 T00471050  RH  050%=      5-min Rain = 0
KFL1 131844Z 28014KT 05/M05 A3015 RMK A01 T00471051  RH  049%=      5-min Rain = 0
KFL1 131845Z 28018KT 05/M05 A3015 RMK A01 T00461052  RH  049%=      5-min Rain = 0
KFL1 131846Z 28017KT 04/M05 A3015 RMK A01 T00441052  RH  050%=      5-min Rain = 0
KFL1 131847Z 29013G19KT 04/M05 A3016 RMK A01 T00431053  RH  050%=      5-min Rain = 0
KFL1 131848Z 28022G27KT 04/M05 A3016 RMK A01 T00431053  RH  050%=      5-min Rain = 0
KFL1 131849Z 29020G25KT 04/M05 A3015 RMK A01 T00441052  RH  050%=      5-min Rain = 0
KFL1 131850Z 29018KT 04/M05 A3015 RMK A01 T00431050  RH  051%=      5-min Rain = 0
KFL1 131851Z 29018KT 04/M05 A3015 RMK A01 T00431051  RH  051%=      5-min Rain = 0
KFL1 131852Z 29021KT 04/M05 A3015 RMK A01 T00411051  RH  051%=      5-min Rain = 0
KFL1 131853Z 30019KT 04/M05 A3015 RMK A01 T00401050  RH  052%=      5-min Rain = 0
KFL1 131854Z 29016G24KT 04/M05 A3015 RMK A01 T00401050  RH  052%=      5-min Rain = 0
KFL1 131855Z 28020G25KT 04/M05 A3015 RMK A01 T00391051  RH  052%=      5-min Rain = 0
KFL1 131856Z 29017KT 04/M05 A3015 RMK A01 T00411052  RH  051%=      5-min Rain = 0
KFL1 131857Z 28019G24KT 04/M05 A3015 RMK A01 T00401053  RH  051%=      5-min Rain = 0
KFL1 131858Z 28021G27KT 04/M06 A3015 RMK A01 T00381057  RH  050%=      5-min Rain = 0
KFL1 131859Z 28019G26KT 04/M06 A3015 RMK A01 T00381055  RH  051%=      5-min Rain = 0
KFL1 131900Z 28023G28KT 04/M06 A3015 RMK A01 T00371055  RH  051%=      5-min Rain = 0
KFL1 131901Z 29018KT 04/M05 A3015 RMK A01 T00371053  RH  052%=      5-min Rain = 0
KFL1 131902Z 29015G20KT 04/M05 A3015 RMK A01 T00371053  RH  052%=      5-min Rain = 0
KFL1 131903Z 28017KT 04/M05 A3015 RMK A01 T00361052  RH  052%=      5-min Rain = 0
KFL1 131904Z 29020KT 04/M05 A3015 RMK A01 T00371054  RH  051%=      5-min Rain = 0
KFL1 131905Z 29018KT 04/M05 A3015 RMK A01 T00361052  RH  052%=      5-min Rain = 0
KFL1 131906Z 28018G24KT 04/M05 A3015 RMK A01 T00361053  RH  052%=      5-min Rain = 0
KFL1 131907Z 28017KT 04/M06 A3015 RMK A01 T00361055  RH  051%=      5-min Rain = 0
KFL1 131908Z 28016G23KT 04/M06 A3015 RMK A01 T00381055  RH  051%=      5-min Rain = 0
KFL1 131909Z 28019G26KT 04/M06 A3015 RMK A01 T00371055  RH  051%=      5-min Rain = 0
KFL1 131910Z 28020KT 04/M05 A3015 RMK A01 T00391052  RH  051%=      5-min Rain = 0
KFL1 131911Z 29019KT 04/M06 A3015 RMK A01 T00361055  RH  051%=      5-min Rain = 0
KFL1 131912Z 28016KT 04/M06 A3015 RMK A01 T00351055  RH  052%=      5-min Rain = 0
KFL1 131913Z 28013KT 04/M06 A3015 RMK A01 T00351055  RH  052%=      5-min Rain = 0
KFL1 131914Z 28015G20KT 04/M05 A3015 RMK A01 T00361053  RH  052%=      5-min Rain = 0
KFL1 131915Z 29012G18KT 04/M06 A3015 RMK A01 T00361056  RH  051%=      5-min Rain = 0
KFL1 131916Z 28013KT 04/M05 A3015 RMK A01 T00371054  RH  051%=      5-min Rain = 0
KFL1 131917Z 29015G20KT 04/M06 A3015 RMK A01 T00351056  RH  051%=      5-min Rain = 0
KFL1 131918Z 29015KT 04/M05 A3016 RMK A01 T00371052  RH  052%=      5-min Rain = 0
KFL1 131919Z 29015KT 04/M05 A3016 RMK A01 T00371051  RH  053%=      5-min Rain = 0
KFL1 131920Z 29018KT 04/M05 A3016 RMK A01 T00361052  RH  053%=      5-min Rain = 0
KFL1 131921Z 28016G23KT 04/M06 A3016 RMK A01 T00351055  RH  052%=      5-min Rain = 0
KFL1 131922Z 29019KT 03/M06 A3016 RMK A01 T00341056  RH  052%=      5-min Rain = 0
KFL1 131923Z 28019KT 04/M05 A3016 RMK A01 T00351053  RH  053%=      5-min Rain = 0
KFL1 131924Z 28017G22KT 04/M06 A3016 RMK A01 T00351056  RH  051%=      5-min Rain = 0
KFL1 131925Z 28016KT 04/M06 A3016 RMK A01 T00351055  RH  052%=      5-min Rain = 0
KFL1 131926Z 28014KT 04/M06 A3015 RMK A01 T00351056  RH  051%=      5-min Rain = 0
KFL1 131927Z 29015KT 04/M06 A3015 RMK A01 T00361056  RH  051%=      5-min Rain = 0
KFL1 131928Z 28018KT 04/M06 A3015 RMK A01 T00361055  RH  051%=      5-min Rain = 0
KFL1 131929Z 28017KT 04/M06 A3015 RMK A01 T00361055  RH  052%=      5-min Rain = 0
KFL1 131930Z 29020G25KT 04/M06 A3015 RMK A01 T00351056  RH  051%=      5-min Rain = 0
KFL1 131931Z 29019KT 04/M05 A3015 RMK A01 T00371053  RH  052%=      5-min Rain = 0
KFL1 131932Z 29018KT 04/M05 A3015 RMK A01 T00361054  RH  052%=      5-min Rain = 0
KFL1 131933Z 30014KT 04/M05 A3015 RMK A01 T00371054  RH  051%=      5-min Rain = 0
KFL1 131934Z 29014KT 04/M06 A3016 RMK A01 T00371055  RH  051%=      5-min Rain = 0
KFL1 131935Z 29018G24KT 04/M05 A3015 RMK A01 T00371053  RH  052%=      5-min Rain = 0
KFL1 131936Z 29020G26KT 04/M05 A3015 RMK A01 T00381052  RH  052%=      5-min Rain = 0
KFL1 131937Z 29021KT 04/M05 A3015 RMK A01 T00371052  RH  052%=      5-min Rain = 0
KFL1 131938Z 30017KT 04/M05 A3014 RMK A01 T00361053  RH  052%=      5-min Rain = 0
KFL1 131939Z 28016G21KT 04/M05 A3014 RMK A01 T00381054  RH  051%=      5-min Rain = 0
KFL1 131940Z 28017KT 04/M05 A3014 RMK A01 T00411053  RH  050%=      5-min Rain = 0
KFL1 131941Z 28017KT 04/M05 A3014 RMK A01 T00411053  RH  050%=      5-min Rain = 0
KFL1 131942Z 29015KT 04/M05 A3014 RMK A01 T00411053  RH  050%=      5-min Rain = 0
KFL1 131943Z 28015KT 04/M05 A3014 RMK A01 T00411053  RH  050%=      5-min Rain = 0
KFL1 131944Z 28012KT 04/M06 A3014 RMK A01 T00411055  RH  050%=      5-min Rain = 0
KFL1 131945Z 28016G22KT 04/M05 A3014 RMK A01 T00431054  RH  050%=      5-min Rain = 0
KFL1 131946Z 29017KT 04/M05 A3015 RMK A01 T00431053  RH  050%=      5-min Rain = 0
KFL1 131947Z 28017KT 04/M05 A3015 RMK A01 T00411051  RH  051%=      5-min Rain = 0
KFL1 131948Z 29017KT 04/M05 A3014 RMK A01 T00401050  RH  052%=      5-min Rain = 0
KFL1 131949Z 28015KT 04/M05 A3014 RMK A01 T00401049  RH  052%=      5-min Rain = 0
KFL1 131950Z 28017KT 04/M05 A3014 RMK A01 T00401050  RH  052%=      5-min Rain = 0
KFL1 131951Z 28016KT 04/M05 A3014 RMK A01 T00431048  RH  052%=      5-min Rain = 0
KFL1 131952Z 27017G22KT 04/M05 A3014 RMK A01 T00411050  RH  051%=      5-min Rain = 0
KFL1 131953Z 28018KT 04/M05 A3014 RMK A01 T00411050  RH  052%=      5-min Rain = 0
KFL1 131954Z 28013KT 04/M05 A3014 RMK A01 T00411050  RH  052%=      5-min Rain = 0
KFL1 131955Z 28013KT 04/M05 A3014 RMK A01 T00411050  RH  051%=      5-min Rain = 0
KFL1 131956Z 28014G19KT 04/M05 A3014 RMK A01 T00431049  RH  051%=      5-min Rain = 0
KFL1 131957Z 28015G21KT 04/M05 A3014 RMK A01 T00431051  RH  050%=      5-min Rain = 0
KFL1 131958Z 27019G26KT 04/M05 A3014 RMK A01 T00421048  RH  052%=      5-min Rain = 0
KFL1 131959Z 28021G27KT 04/M05 A3013 RMK A01 T00431047  RH  052%=      5-min Rain = 0
KFL1 132000Z 29022KT 04/M05 A3013 RMK A01 T00421046  RH  053%=      5-min Rain = 0
KFL1 132001Z 29018KT 04/M04 A3014 RMK A01 T00421044  RH  054%=      5-min Rain = 0
KFL1 132002Z 28014KT 04/M05 A3013 RMK A01 T00411047  RH  053%=      5-min Rain = 0
KFL1 132003Z 28014KT 04/M05 A3013 RMK A01 T00431049  RH  051%=      5-min Rain = 0
KFL1 132004Z 30016KT 05/M05 A3013 RMK A01 T00461045  RH  052%=      5-min Rain = 0
KFL1 132005Z 28011KT 05/M05 A3013 RMK A01 T00461047  RH  051%=      5-min Rain = 0
KFL1 132006Z 28015KT 05/M05 A3013 RMK A01 T00451050  RH  050%=      5-min Rain = 0
KFL1 132007Z 28016KT 05/M05 A3013 RMK A01 T00461047  RH  051%=      5-min Rain = 0
KFL1 132008Z 30016KT 05/M05 A3013 RMK A01 T00451048  RH  051%=      5-min Rain = 0
KFL1 132009Z 29015G23KT 04/M05 A3013 RMK A01 T00431048  RH  052%=      5-min Rain = 0
KFL1 132010Z 29018KT 04/M05 A3013 RMK A01 T00431047  RH  052%=      5-min Rain = 0
KFL1 132011Z 28014KT 04/M05 A3013 RMK A01 T00421046  RH  053%=      5-min Rain = 0
KFL1 132012Z 29014KT 04/M05 A3013 RMK A01 T00401046  RH  053%=      5-min Rain = 0
KFL1 132013Z 28016KT 04/M05 A3013 RMK A01 T00401046  RH  053%=      5-min Rain = 0
KFL1 132014Z 29012KT 04/M05 A3013 RMK A01 T00391051  RH  052%=      5-min Rain = 0
KFL1 132015Z 29012KT 04/M05 A3013 RMK A01 T00401049  RH  052%=      5-min Rain = 0
KFL1 132016Z 28012G17KT 04/M05 A3013 RMK A01 T00391048  RH  053%=      5-min Rain = 0
KFL1 132017Z 29012G17KT 04/M05 A3013 RMK A01 T00391049  RH  053%=      5-min Rain = 0
KFL1 132018Z 29013KT 04/M05 A3013 RMK A01 T00381047  RH  054%=      5-min Rain = 0
KFL1 132019Z 28017KT 04/M05 A3013 RMK A01 T00371046  RH  054%=      5-min Rain = 0
KFL1 132020Z 28018KT 04/M05 A3013 RMK A01 T00371050  RH  053%=      5-min Rain = 0
KFL1 132021Z 28016G21KT 04/M05 A3013 RMK A01 T00361050  RH  054%=      5-min Rain = 0
KFL1 132022Z 28015KT 04/M05 A3013 RMK A01 T00351051  RH  053%=      5-min Rain = 0
KFL1 132023Z 28017G22KT 04/M05 A3013 RMK A01 T00351051  RH  053%=      5-min Rain = 0
KFL1 132024Z 29017KT 04/M05 A3013 RMK A01 T00351049  RH  054%=      5-min Rain = 0
KFL1 132025Z 28017KT 04/M05 A3013 RMK A01 T00351049  RH  054%=      5-min Rain = 0
KFL1 132026Z 28017G22KT 04/M05 A3013 RMK A01 T00361048  RH  054%=      5-min Rain = 0
KFL1 132027Z 27014KT 04/M05 A3013 RMK A01 T00361049  RH  054%=      5-min Rain = 0
KFL1 132028Z 28012KT 04/M05 A3013 RMK A01 T00361050  RH  053%=      5-min Rain = 0
KFL1 132029Z 29012KT 04/M05 A3013 RMK A01 T00351051  RH  053%=      5-min Rain = 0
KFL1 132030Z 29012KT 04/M05 A3013 RMK A01 T00371046  RH  055%=      5-min Rain = 0
KFL1 132031Z 29012KT 04/M05 A3013 RMK A01 T00361047  RH  055%=      5-min Rain = 0
KFL1 132032Z 29011KT 04/M05 A3013 RMK A01 T00361047  RH  055%=      5-min Rain = 0
KFL1 132033Z 28011G16KT 04/M05 A3013 RMK A01 T00361049  RH  054%=      5-min Rain = 0
KFL1 132034Z 30017KT 04/M05 A3013 RMK A01 T00361050  RH  053%=      5-min Rain = 0
KFL1 132035Z 29012KT 04/M05 A3013 RMK A01 T00351049  RH  054%=      5-min Rain = 0
KFL1 132036Z 28012KT 04/M05 A3013 RMK A01 T00361049  RH  054%=      5-min Rain = 0
KFL1 132037Z 29013KT 04/M05 A3013 RMK A01 T00361048  RH  054%=      5-min Rain = 0
KFL1 132038Z 29012KT 04/M05 A3013 RMK A01 T00371046  RH  055%=      5-min Rain = 0
KFL1 132039Z 29015G20KT 04/M05 A3013 RMK A01 T00361048  RH  054%=      5-min Rain = 0
KFL1 132040Z 30016KT 04/M05 A3013 RMK A01 T00361049  RH  054%=      5-min Rain = 0
KFL1 132041Z 29014KT 04/M05 A3013 RMK A01 T00361050  RH  053%=      5-min Rain = 0
KFL1 132042Z 28012KT 04/M05 A3013 RMK A01 T00361051  RH  053%=      5-min Rain = 0
KFL1 132043Z 29014KT 04/M05 A3013 RMK A01 T00361051  RH  053%=      5-min Rain = 0
KFL1 132044Z 28015KT 04/M05 A3013 RMK A01 T00361052  RH  053%=      5-min Rain = 0
KFL1 132045Z 29013KT 04/M05 A3013 RMK A01 T00361051  RH  053%=      5-min Rain = 0
KFL1 132046Z 29016KT 04/M05 A3013 RMK A01 T00361051  RH  053%=      5-min Rain = 0
KFL1 132047Z 30014KT 04/M06 A3013 RMK A01 T00351055  RH  052%=      5-min Rain = 0
KFL1 132048Z 29011KT 04/M05 A3013 RMK A01 T00351053  RH  052%=      5-min Rain = 0
KFL1 132049Z 27012G17KT 04/M05 A3013 RMK A01 T00361052  RH  053%=      5-min Rain = 0
KFL1 132050Z 28012KT 04/M05 A3013 RMK A01 T00361052  RH  053%=      5-min Rain = 0
KFL1 132051Z 28012KT 04/M05 A3013 RMK A01 T00361051  RH  053%=      5-min Rain = 0
KFL1 132052Z 28013KT 04/M05 A3012 RMK A01 T00361053  RH  052%=      5-min Rain = 0
KFL1 132053Z 28012KT 04/M05 A3012 RMK A01 T00371052  RH  052%=      5-min Rain = 0
KFL1 132054Z 28013G18KT 04/M06 A3012 RMK A01 T00361056  RH  051%=      5-min Rain = 0
KFL1 132055Z 27015KT 04/M06 A3012 RMK A01 T00351055  RH  052%=      5-min Rain = 0
KFL1 132056Z 28014KT 04/M06 A3011 RMK A01 T00351058  RH  051%=      5-min Rain = 0
KFL1 132057Z 29011KT 04/M06 A3011 RMK A01 T00361057  RH  051%=      5-min Rain = 0
KFL1 132058Z 29013G18KT 04/M05 A3011 RMK A01 T00381054  RH  051%=      5-min Rain = 0
KFL1 132059Z 28011KT 04/M06 A3011 RMK A01 T00361056  RH  051%=      5-min Rain = 0
KFL1 132100Z 28009KT 03/M06 A3011 RMK A01 T00341055  RH  052%=      5-min Rain = 0
KFL1 132101Z 28012KT 03/M06 A3011 RMK A01 T00341056  RH  052%=      5-min Rain = 0
KFL1 132102Z 29013KT 04/M05 A3012 RMK A01 T00351054  RH  052%=      5-min Rain = 0
KFL1 132103Z 29011KT 04/M05 A3012 RMK A01 T00361051  RH  053%=      5-min Rain = 0
KFL1 132104Z 29011KT 03/M06 A3012 RMK A01 T00341055  RH  052%=      5-min Rain = 0
KFL1 132105Z 28010KT 03/M06 A3012 RMK A01 T00341055  RH  052%=      5-min Rain = 0
KFL1 132106Z 28012KT 03/M06 A3012 RMK A01 T00341056  RH  052%=      5-min Rain = 0
KFL1 132107Z 28011KT 03/M06 A3012 RMK A01 T00341056  RH  052%=      5-min Rain = 0
KFL1 132108Z 27009KT 03/M05 A3012 RMK A01 T00341052  RH  053%=      5-min Rain = 0
KFL1 132109Z 28015KT 04/M05 A3012 RMK A01 T00351051  RH  053%=      5-min Rain = 0
KFL1 132110Z 28014KT 04/M05 A3012 RMK A01 T00351052  RH  053%=      5-min Rain = 0
KFL1 132111Z 28011KT 04/M05 A3012 RMK A01 T00351053  RH  053%=      5-min Rain = 0
KFL1 132112Z 28011KT 04/M05 A3012 RMK A01 T00361051  RH  053%=      5-min Rain = 0
KFL1 132113Z 28012KT 04/M05 A3013 RMK A01 T00351049  RH  054%=      5-min Rain = 0
KFL1 132114Z 27011KT 03/M05 A3013 RMK A01 T00341050  RH  054%=      5-min Rain = 0
KFL1 132115Z 27011KT 03/M05 A3013 RMK A01 T00341052  RH  053%=      5-min Rain = 0
KFL1 132116Z 27014KT 03/M05 A3013 RMK A01 T00341053  RH  053%=      5-min Rain = 0
KFL1 132117Z 27014KT 04/M05 A3013 RMK A01 T00351051  RH  053%=      5-min Rain = 0
KFL1 132118Z 27014KT 03/M05 A3012 RMK A01 T00331053  RH  053%=      5-min Rain = 0
KFL1 132119Z 27013KT 03/M05 A3012 RMK A01 T00331050  RH  054%=      5-min Rain = 0
KFL1 132120Z 29011KT 03/M05 A3012 RMK A01 T00321052  RH  054%=      5-min Rain = 0
KFL1 132121Z 27010KT 03/M05 A3012 RMK A01 T00331052  RH  054%=      5-min Rain = 0
KFL1 132122Z 28011KT 03/M05 A3012 RMK A01 T00331052  RH  053%=      5-min Rain = 0
KFL1 132123Z 27010KT 03/M05 A3012 RMK A01 T00331053  RH  053%=      5-min Rain = 0
KFL1 132124Z 28014G20KT 03/M05 A3012 RMK A01 T00331054  RH  053%=      5-min Rain = 0
KFL1 132125Z 30013KT 03/M06 A3012 RMK A01 T00331055  RH  053%=      5-min Rain = 0
KFL1 132126Z 28016G21KT 03/M05 A3012 RMK A01 T00321052  RH  054%=      5-min Rain = 0
KFL1 132127Z 28016KT 03/M05 A3013 RMK A01 T00321054  RH  053%=      5-min Rain = 0
KFL1 132128Z 28016KT 03/M05 A3013 RMK A01 T00341054  RH  052%=      5-min Rain = 0
KFL1 132129Z 28014KT 03/M06 A3013 RMK A01 T00321056  RH  053%=      5-min Rain = 0
KFL1 132130Z 29013KT 03/M06 A3013 RMK A01 T00321057  RH  052%=      5-min Rain = 0
KFL1 132131Z 28012KT 03/M06 A3013 RMK A01 T00331057  RH  052%=      5-min Rain = 0
KFL1 132132Z 28013KT 03/M06 A3013 RMK A01 T00331056  RH  052%=      5-min Rain = 0
KFL1 132133Z 30014G19KT 03/M06 A3012 RMK A01 T00321056  RH  052%=      5-min Rain = 0
KFL1 132134Z 30014G19KT 03/M05 A3012 RMK A01 T00321054  RH  053%=      5-min Rain = 0
KFL1 132135Z 29012KT 03/M05 A3012 RMK A01 T00331051  RH  054%=      5-min Rain = 0
KFL1 132136Z 28010KT 03/M06 A3012 RMK A01 T00301055  RH  054%=      5-min Rain = 0
KFL1 132137Z 29010KT 03/M05 A3012 RMK A01 T00311054  RH  054%=      5-min Rain = 0
KFL1 132138Z 28011KT 03/M06 A3012 RMK A01 T00311056  RH  053%=      5-min Rain = 0
KFL1 132139Z 28010KT 03/M06 A3012 RMK A01 T00311056  RH  053%=      5-min Rain = 0
KFL1 132140Z 28010KT 03/M06 A3012 RMK A01 T00311058  RH  052%=      5-min Rain = 0
KFL1 132141Z 27009KT 03/M06 A3012 RMK A01 T00321056  RH  053%=      5-min Rain = 0
KFL1 132142Z 28012KT 03/M06 A3012 RMK A01 T00321057  RH  052%=      5-min Rain = 0
KFL1 132143Z 28012KT 03/M06 A3012 RMK A01 T00321057  RH  052%=      5-min Rain = 0
KFL1 132144Z 28012KT 03/M06 A3012 RMK A01 T00331057  RH  052%=      5-min Rain = 0
KFL1 132145Z 28012KT 03/M06 A3011 RMK A01 T00311058  RH  052%=      5-min Rain = 0
KFL1 132146Z 28012KT 03/M06 A3011 RMK A01 T00311060  RH  051%=      5-min Rain = 0
KFL1 132147Z 28010KT 03/M06 A3011 RMK A01 T00311062  RH  050%=      5-min Rain = 0
KFL1 132148Z 28012KT 03/M06 A3011 RMK A01 T00311061  RH  051%=      5-min Rain = 0
KFL1 132149Z 28010KT 03/M06 A3011 RMK A01 T00311059  RH  052%=      5-min Rain = 0
KFL1 132150Z 29010KT 03/M06 A3011 RMK A01 T00311060  RH  051%=      5-min Rain = 0
KFL1 132151Z 28009KT 03/M06 A3011 RMK A01 T00311059  RH  052%=      5-min Rain = 0
KFL1 132152Z 28007KT 03/M06 A3011 RMK A01 T00311062  RH  050%=      5-min Rain = 0
KFL1 132153Z 28010KT 03/M06 A3011 RMK A01 T00311060  RH  051%=      5-min Rain = 0
KFL1 132154Z 29010KT 03/M06 A3011 RMK A01 T00301062  RH  051%=      5-min Rain = 0
KFL1 132155Z 28007KT 03/M06 A3011 RMK A01 T00311062  RH  050%=      5-min Rain = 0
KFL1 132156Z 28007KT 03/M06 A3011 RMK A01 T00311060  RH  051%=      5-min Rain = 0
KFL1 132157Z 28011KT 03/M06 A3011 RMK A01 T00311059  RH  052%=      5-min Rain = 0
KFL1 132158Z 28011KT 03/M06 A3011 RMK A01 T00311062  RH  051%=      5-min Rain = 0
KFL1 132159Z 28010KT 03/M06 A3011 RMK A01 T00301063  RH  050%=      5-min Rain = 0
KFL1 132200Z 28012KT 03/M06 A3011 RMK A01 T00321061  RH  051%=      5-min Rain = 0
KFL1 132201Z 28011KT 03/M06 A3011 RMK A01 T00311060  RH  051%=      5-min Rain = 0
KFL1 132202Z 29011KT 03/M06 A3011 RMK A01 T00311061  RH  051%=      5-min Rain = 0
KFL1 132203Z 29009KT 03/M06 A3011 RMK A01 T00291059  RH  053%=      5-min Rain = 0
KFL1 132204Z 27010KT 03/M06 A3011 RMK A01 T00281063  RH  051%=      5-min Rain = 0
KFL1 132205Z 27009KT 03/M07 A3011 RMK A01 T00291065  RH  050%=      5-min Rain = 0
KFL1 132206Z 28011KT 03/M06 A3011 RMK A01 T00291064  RH  050%=      5-min Rain = 0
KFL1 132207Z 28010KT 03/M06 A3011 RMK A01 T00291064  RH  050%=      5-min Rain = 0
KFL1 132208Z 29013KT 03/M06 A3011 RMK A01 T00291062  RH  051%=      5-min Rain = 0
KFL1 132209Z 29013KT 03/M06 A3011 RMK A01 T00291061  RH  051%=      5-min Rain = 0
KFL1 132210Z 29011KT 03/M06 A3011 RMK A01 T00281061  RH  052%=      5-min Rain = 0
KFL1 132211Z 27011KT 03/M06 A3011 RMK A01 T00271062  RH  052%=      5-min Rain = 0
KFL1 132212Z 28012KT 03/M06 A3011 RMK A01 T00281064  RH  051%=      5-min Rain = 0
KFL1 132213Z 29011KT 03/M07 A3012 RMK A01 T00281065  RH  050%=      5-min Rain = 0
KFL1 132214Z 29013KT 03/M06 A3012 RMK A01 T00291061  RH  052%=      5-min Rain = 0
KFL1 132215Z 28013KT 03/M06 A3012 RMK A01 T00291061  RH  052%=      5-min Rain = 0
KFL1 132216Z 29013KT 03/M06 A3011 RMK A01 T00281062  RH  051%=      5-min Rain = 0
KFL1 132217Z 29009KT 03/M06 A3011 RMK A01 T00281063  RH  051%=      5-min Rain = 0
KFL1 132218Z 29010KT 03/M06 A3011 RMK A01 T00291061  RH  052%=      5-min Rain = 0
KFL1 132219Z 29009KT 03/M06 A3011 RMK A01 T00291060  RH  052%=      5-min Rain = 0
KFL1 132220Z 29010KT 03/M06 A3011 RMK A01 T00281063  RH  051%=      5-min Rain = 0
KFL1 132221Z 30009KT 03/M06 A301 RMK A01 T00281059  RH  052%=      5-min Rain = 0
KFL1 132222Z 30009KT 03/M06 A301 RMK A01 T00291056  RH  054%=      5-min Rain = 0
KFL1 132223Z 29009KT 03/M06 A301 RMK A01 T00281056  RH  054%=      5-min Rain = 0
KFL1 132224Z 29007KT 03/M05 A301 RMK A01 T00271053  RH  056%=      5-min Rain = 0
KFL1 132225Z 29010KT 03/M05 A301 RMK A01 T00261054  RH  056%=      5-min Rain = 0
KFL1 132226Z 30012KT 03/M06 A301 RMK A01 T00261058  RH  054%=      5-min Rain = 0
KFL1 132227Z 30009KT 03/M06 A301 RMK A01 T00271060  RH  053%=      5-min Rain = 0
KFL1 132228Z 30010KT 03/M06 A301 RMK A01 T00281062  RH  052%=      5-min Rain = 0
KFL1 132229Z 30010KT 03/M06 A3011 RMK A01 T00291059  RH  053%=      5-min Rain = 0
KFL1 132230Z 30011KT 03/M06 A3011 RMK A01 T00281061  RH  052%=      5-min Rain = 0
KFL1 132231Z 29011KT 03/M06 A3011 RMK A01 T00271062  RH  052%=      5-min Rain = 0
KFL1 132232Z 30012KT 03/M06 A3011 RMK A01 T00271061  RH  052%=      5-min Rain = 0
KFL1 132233Z 30012KT 03/M06 A3011 RMK A01 T00281061  RH  052%=      5-min Rain = 0
KFL1 132234Z 31011KT 03/M06 A3011 RMK A01 T00281061  RH  052%=      5-min Rain = 0
KFL1 132235Z 31011KT 03/M06 A3011 RMK A01 T00281062  RH  052%=      5-min Rain = 0
KFL1 132236Z 31011KT 03/M06 A3011 RMK A01 T00291058  RH  053%=      5-min Rain = 0
KFL1 132237Z 31012KT 03/M06 A3011 RMK A01 T00281059  RH  053%=      5-min Rain = 0
KFL1 132238Z 31010KT 03/M06 A3011 RMK A01 T00281059  RH  053%=      5-min Rain = 0
KFL1 132239Z 30011KT 03/M06 A3011 RMK A01 T00291059  RH  053%=      5-min Rain = 0
KFL1 132240Z 30012KT 03/M06 A3011 RMK A01 T00271058  RH  053%=      5-min Rain = 0
KFL1 132241Z 31012KT 03/M06 A3011 RMK A01 T00281060  RH  052%=      5-min Rain = 0
KFL1 132242Z 31013KT 03/M06 A3011 RMK A01 T00271061  RH  052%=      5-min Rain = 0
KFL1 132243Z 31011KT 03/M06 A3011 RMK A01 T00271063  RH  051%=      5-min Rain = 0
KFL1 132244Z 31011KT 03/M06 A3011 RMK A01 T00271064  RH  051%=      5-min Rain = 0
KFL1 132245Z 31010KT 03/M06 A3011 RMK A01 T00281063  RH  051%=      5-min Rain = 0
KFL1 132246Z 32010KT 03/M06 A3011 RMK A01 T00281062  RH  052%=      5-min Rain = 0
KFL1 132247Z 31010KT 03/M06 A3011 RMK A01 T00271058  RH  053%=      5-min Rain = 0
KFL1 132248Z 31012KT 03/M06 A3011 RMK A01 T00271057  RH  054%=      5-min Rain = 0
KFL1 132249Z 31012KT 03/M06 A3011 RMK A01 T00261058  RH  054%=      5-min Rain = 0
KFL1 132250Z 31010KT 03/M06 A3011 RMK A01 T00251061  RH  053%=      5-min Rain = 0
KFL1 132251Z 31012KT 03/M06 A3011 RMK A01 T00261061  RH  053%=      5-min Rain = 0
KFL1 132252Z 31015G20KT 03/M06 A3011 RMK A01 T00261062  RH  052%=      5-min Rain = 0
KFL1 132253Z 31016KT 03/M06 A3011 RMK A01 T00261062  RH  052%=      5-min Rain = 0
KFL1 132254Z 31014KT 03/M06 A3011 RMK A01 T00261062  RH  052%=      5-min Rain = 0
KFL1 132255Z 31013KT 03/M06 A3011 RMK A01 T00261060  RH  053%=      5-min Rain = 0
KFL1 132256Z 30013KT 03/M06 A3011 RMK A01 T00261059  RH  053%=      5-min Rain = 0
KFL1 132257Z 30010KT 03/M06 A3011 RMK A01 T00251061  RH  053%=      5-min Rain = 0
KFL1 132258Z 30011KT 03/M06 A3011 RMK A01 T00261058  RH  054%=      5-min Rain = 0
KFL1 132259Z 30012KT 03/M06 A3011 RMK A01 T00251058  RH  054%=      5-min Rain = 0
KFL1 132300Z 30011KT 03/M06 A3011 RMK A01 T00251061  RH  053%=      5-min Rain = 0
KFL1 132301Z 30011KT 03/M06 A3011 RMK A01 T00251061  RH  053%=      5-min Rain = 0
KFL1 132302Z 30012KT 03/M06 A3011 RMK A01 T00261060  RH  053%=      5-min Rain = 0
KFL1 132303Z 29013KT 03/M06 A3011 RMK A01 T00251060  RH  053%=      5-min Rain = 0
KFL1 132304Z 29014KT 02/M06 A3011 RMK A01 T00241060  RH  054%=      5-min Rain = 0
KFL1 132305Z 30011KT 02/M06 A3011 RMK A01 T00231058  RH  055%=      5-min Rain = 0
KFL1 132306Z 30010KT 02/M06 A3011 RMK A01 T00231059  RH  055%=      5-min Rain = 0
KFL1 132307Z 30009KT 02/M06 A3011 RMK A01 T00231060  RH  054%=      5-min Rain = 0
KFL1 132308Z 30011KT 02/M06 A3011 RMK A01 T00241059  RH  054%=      5-min Rain = 0
KFL1 132309Z 30013KT 02/M06 A3011 RMK A01 T00241059  RH  054%=      5-min Rain = 0
KFL1 132310Z 30012KT 02/M06 A3011 RMK A01 T00241063  RH  053%=      5-min Rain = 0
KFL1 132311Z 31010KT 03/M06 A3011 RMK A01 T00251062  RH  053%=      5-min Rain = 0
KFL1 132312Z 31010KT 02/M06 A3011 RMK A01 T00241061  RH  053%=      5-min Rain = 0
KFL1 132313Z 31012KT 02/M06 A3011 RMK A01 T00241061  RH  053%=      5-min Rain = 0
KFL1 132314Z 31014KT 02/M06 A3011 RMK A01 T00241062  RH  053%=      5-min Rain = 0
KFL1 132315Z 30012G17KT 02/M06 A3011 RMK A01 T00231061  RH  054%=      5-min Rain = 0
KFL1 132316Z 30012KT 02/M06 A3011 RMK A01 T00231062  RH  053%=      5-min Rain = 0
KFL1 132317Z 31011KT 02/M06 A3011 RMK A01 T00231063  RH  053%=      5-min Rain = 0
KFL1 132318Z 30013KT 02/M06 A3011 RMK A01 T00241064  RH  052%=      5-min Rain = 0
KFL1 132319Z 30011KT 02/M06 A3011 RMK A01 T00241062  RH  053%=      5-min Rain = 0
KFL1 132320Z 30011KT 02/M06 A3011 RMK A01 T00241063  RH  053%=      5-min Rain = 0
KFL1 132321Z 30012KT 02/M06 A3011 RMK A01 T00231064  RH  053%=      5-min Rain = 0
KFL1 132322Z 30012KT 02/M07 A3011 RMK A01 T00231065  RH  052%=      5-min Rain = 0
KFL1 132323Z 30013KT 02/M07 A3011 RMK A01 T00241065  RH  052%=      5-min Rain = 0
KFL1 132324Z 31011KT 02/M07 A3011 RMK A01 T00241066  RH  052%=      5-min Rain = 0
KFL1 132325Z 31011KT 02/M06 A3011 RMK A01 T00241064  RH  052%=      5-min Rain = 0
KFL1 132326Z 31011KT 02/M06 A3012 RMK A01 T00241063  RH  053%=      5-min Rain = 0
KFL1 132327Z 31012KT 02/M06 A3012 RMK A01 T00241062  RH  053%=      5-min Rain = 0
KFL1 132328Z 31012KT 02/M06 A3012 RMK A01 T00231063  RH  053%=      5-min Rain = 0
KFL1 132329Z 32017KT 02/M06 A3012 RMK A01 T00231061  RH  054%=      5-min Rain = 0
KFL1 132330Z 32013KT 02/M07 A3011 RMK A01 T00231065  RH  052%=      5-min Rain = 0
KFL1 132331Z 31011KT 02/M07 A3011 RMK A01 T00241065  RH  052%=      5-min Rain = 0
KFL1 132332Z 32010KT 03/M06 A3011 RMK A01 T00251062  RH  053%=      5-min Rain = 0
KFL1 132333Z 32010KT 02/M06 A3011 RMK A01 T00241062  RH  053%=      5-min Rain = 0
KFL1 132334Z 32013KT 02/M06 A301 RMK A01 T00241062  RH  053%=      5-min Rain = 0
KFL1 132335Z 32013KT 02/M06 A301 RMK A01 T00231061  RH  054%=      5-min Rain = 0
KFL1 132336Z 32010KT 02/M06 A301 RMK A01 T00231060  RH  054%=      5-min Rain = 0
KFL1 132337Z 33009KT 02/M06 A301 RMK A01 T00231060  RH  054%=      5-min Rain = 0
KFL1 132338Z 32010KT 02/M06 A301 RMK A01 T00211058  RH  056%=      5-min Rain = 0
KFL1 132339Z 32015KT 02/M06 A301 RMK A01 T00201061  RH  055%=      5-min Rain = 0
KFL1 132340Z 34016G21KT 02/M06 A301 RMK A01 T00201062  RH  055%=      5-min Rain = 0
KFL1 132341Z 33016KT 02/M06 A301 RMK A01 T00201060  RH  055%=      5-min Rain = 0
KFL1 132342Z 32013KT 02/M06 A301 RMK A01 T00191060  RH  056%=      5-min Rain = 0
KFL1 132343Z 32014KT 02/M06 A301 RMK A01 T00191060  RH  056%=      5-min Rain = 0
KFL1 132344Z 31017KT 02/M06 A301 RMK A01 T00201060  RH  055%=      5-min Rain = 0
KFL1 132345Z 31014KT 02/M06 A301 RMK A01 T00201062  RH  055%=      5-min Rain = 0
KFL1 132346Z 30015KT 02/M06 A301 RMK A01 T00201060  RH  055%=      5-min Rain = 0
KFL1 132347Z 30015KT 02/M06 A3011 RMK A01 T00191058  RH  057%=      5-min Rain = 0
KFL1 132348Z 31013KT 02/M06 A3011 RMK A01 T00191057  RH  057%=      5-min Rain = 0
KFL1 132349Z 31013KT 02/M06 A3011 RMK A01 T00181059  RH  057%=      5-min Rain = 0
KFL1 132350Z 31013KT 02/M06 A3011 RMK A01 T00181060  RH  056%=      5-min Rain = 0
KFL1 132351Z 30011KT 02/M06 A3011 RMK A01 T00181061  RH  056%=      5-min Rain = 0
KFL1 132352Z 30012KT 02/M06 A3011 RMK A01 T00191060  RH  056%=      5-min Rain = 0
KFL1 132353Z 31014KT 02/M06 A3011 RMK A01 T00211057  RH  056%=      5-min Rain = 0
KFL1 132354Z 31011KT 02/M06 A3011 RMK A01 T00201057  RH  056%=      5-min Rain = 0
KFL1 132355Z 31010KT 02/M06 A3011 RMK A01 T00191059  RH  056%=      5-min Rain = 0
KFL1 132356Z 31010KT 02/M06 A3011 RMK A01 T00191058  RH  057%=      5-min Rain = 0
KFL1 132357Z 32012G18KT 02/M06 A3011 RMK A01 T00191057  RH  057%=      5-min Rain = 0
KFL1 132358Z 32015KT 02/M06 A3011 RMK A01 T00171056  RH  058%=      5-min Rain = 0
KFL1 132359Z 31013KT 02/M06 A3011 RMK A01 T00171055  RH  059%=      5-min Rain = 0
KFL1 140000Z 31016G21KT 02/M06 A3011 RMK A01 T00171055  RH  059%=      5-min Rain = 0
KFL1 140001Z 31013KT 02/M06 A3011 RMK A01 T00181055  RH  059%=      5-min Rain = 0
KFL1 140002Z 31011KT 02/M05 A3011 RMK A01 T00181054  RH  059%=      5-min Rain = 0
KFL1 140003Z 31013KT 02/M05 A3011 RMK A01 T00171054  RH  059%=      5-min Rain = 0
KFL1 140004Z 32010KT 02/M05 A3011 RMK A01 T00171051  RH  061%=      5-min Rain = 0
KFL1 140005Z 32011KT 02/M05 A3011 RMK A01 T00151051  RH  061%=      5-min Rain = 0
KFL1 140006Z 33010G17KT 01/M05 A3011 RMK A01 T00141051  RH  062%=      5-min Rain = 0
KFL1 140007Z 32013KT 02/M05 A301 RMK A01 T00151048  RH  063%=      5-min Rain = 0
KFL1 140008Z 32013KT 01/M05 A301 RMK A01 T00131049  RH  063%=      5-min Rain = 0
KFL1 140009Z 31011KT 01/M05 A301 RMK A01 T00131051  RH  063%=      5-min Rain = 0
KFL1 140010Z 33011KT 01/M05 A301 RMK A01 T00131050  RH  063%=      5-min Rain = 0
KFL1 140011Z 33012KT 01/M05 A301 RMK A01 T00141046  RH  064%=      5-min Rain = 0
KFL1 140012Z 31012KT 01/M05 A301 RMK A01 T00131046  RH  065%=      5-min Rain = 0
KFL1 140013Z 33014KT 01/M05 A301 RMK A01 T00131046  RH  065%=      5-min Rain = 0
KFL1 140014Z 32014KT 01/M04 A301 RMK A01 T00121044  RH  067%=      5-min Rain = 0
KFL1 140015Z 32009KT 01/M04 A301 RMK A01 T00121042  RH  067%=      5-min Rain = 0
KFL1 140016Z 32008KT 01/M04 A301 RMK A01 T00121043  RH  067%=      5-min Rain = 0
KFL1 140017Z 32009KT 01/M05 A301 RMK A01 T00111045  RH  066%=      5-min Rain = 0
KFL1 140018Z 32011KT 01/M05 A301 RMK A01 T00101045  RH  067%=      5-min Rain = 0
KFL1 140019Z 32012KT 01/M04 A301 RMK A01 T00091043  RH  068%=      5-min Rain = 0
KFL1 140020Z 31013KT 01/M04 A301 RMK A01 T00101043  RH  068%=      5-min Rain = 0
KFL1 140021Z 32011KT 01/M04 A301 RMK A01 T00111043  RH  067%=      5-min Rain = 0
KFL1 140022Z 32008KT 01/M04 A301 RMK A01 T00111043  RH  067%=      5-min Rain = 0
KFL1 140023Z 31010KT 01/M04 A301 RMK A01 T00111043  RH  067%=      5-min Rain = 0
KFL1 140024Z 31008KT 01/M04 A301 RMK A01 T00101043  RH  068%=      5-min Rain = 0
KFL1 140025Z 32009KT 01/M04 A301 RMK A01 T00091044  RH  068%=      5-min Rain = 0
KFL1 140026Z 31009KT 01/M04 A301 RMK A01 T00101042  RH  068%=      5-min Rain = 0
KFL1 140027Z 32007KT 01/M04 A301 RMK A01 T00101043  RH  068%=      5-min Rain = 0
KFL1 140028Z 31007KT 01/M04 A301 RMK A01 T00101043  RH  068%=      5-min Rain = 0
KFL1 140029Z 32007KT 01/M04 A301 RMK A01 T00101042  RH  068%=      5-min Rain = 0
KFL1 140030Z 33008KT 01/M04 A3009 RMK A01 T00101041  RH  068%=      5-min Rain = 0
KFL1 140031Z 33006KT 01/M04 A3009 RMK A01 T00101041  RH  069%=      5-min Rain = 0
KFL1 140032Z 34006KT 01/M04 A3009 RMK A01 T00091041  RH  069%=      5-min Rain = 0
KFL1 140033Z 33008KT 01/M04 A3009 RMK A01 T00091041  RH  069%=      5-min Rain = 0
KFL1 140034Z 32009KT 01/M04 A3009 RMK A01 T00111040  RH  069%=      5-min Rain = 0
KFL1 140035Z 33007KT 01/M04 A3009 RMK A01 T00101041  RH  069%=      5-min Rain = 0
KFL1 140036Z 34007KT 01/M04 A3009 RMK A01 T00091041  RH  069%=      5-min Rain = 0
KFL1 140037Z 33007KT 01/M04 A3008 RMK A01 T00101041  RH  068%=      5-min Rain = 0
KFL1 140038Z 33006KT 01/M04 A3008 RMK A01 T00101041  RH  068%=      5-min Rain = 0
KFL1 140039Z 33006KT 01/M04 A3008 RMK A01 T00091041  RH  069%=      5-min Rain = 0
KFL1 140040Z 33006KT 01/M04 A3008 RMK A01 T00101043  RH  068%=      5-min Rain = 0
KFL1 140041Z 32006KT 01/M04 A3008 RMK A01 T00121042  RH  067%=      5-min Rain = 0
KFL1 140042Z 32007KT 01/M04 A3008 RMK A01 T00131040  RH  067%=      5-min Rain = 0
KFL1 140043Z 32006KT 01/M04 A3008 RMK A01 T00111044  RH  067%=      5-min Rain = 0
KFL1 140044Z 31003KT 01/M04 A3008 RMK A01 T00121044  RH  066%=      5-min Rain = 0
KFL1 140045Z 32003KT 01/M05 A3008 RMK A01 T00121045  RH  066%=      5-min Rain = 0
KFL1 140046Z 30004KT 01/M04 A3008 RMK A01 T00121044  RH  066%=      5-min Rain = 0
KFL1 140047Z 30003KT 01/M04 A3008 RMK A01 T00121044  RH  066%=      5-min Rain = 0
KFL1 140048Z 27003KT 01/M04 A3008 RMK A01 T00131042  RH  067%=      5-min Rain = 0
KFL1 140049Z 28004KT 01/M04 A3008 RMK A01 T00121043  RH  067%=      5-min Rain = 0
KFL1 140050Z 30004KT 01/M04 A3008 RMK A01 T00131042  RH  067%=      5-min Rain = 0
KFL1 140051Z 30003KT 01/M04 A3008 RMK A01 T00121043  RH  066%=      5-min Rain = 0
KFL1 140052Z 32004KT 01/M04 A3008 RMK A01 T00121043  RH  067%=      5-min Rain = 0
KFL1 140053Z 29004KT 01/M04 A3008 RMK A01 T00121043  RH  067%=      5-min Rain = 0
KFL1 140054Z 30004KT 01/M04 A3008 RMK A01 T00131044  RH  066%=      5-min Rain = 0
KFL1 140055Z 33003KT 01/M04 A3008 RMK A01 T00131044  RH  066%=      5-min Rain = 0
KFL1 140056Z 33004KT 01/M05 A3008 RMK A01 T00131045  RH  065%=      5-min Rain = 0
KFL1 140057Z 33004KT 01/M04 A3008 RMK A01 T00141043  RH  066%=      5-min Rain = 0
KFL1 140058Z 33006KT 01/M04 A3008 RMK A01 T00141042  RH  067%=      5-min Rain = 0
KFL1 140059Z 32005KT 01/M04 A3008 RMK A01 T00131044  RH  066%=      5-min Rain = 0
KFL1 140100Z 33006KT 01/M04 A3008 RMK A01 T00131044  RH  066%=      5-min Rain = 0
KFL1 140101Z 34006KT 01/M04 A3008 RMK A01 T00131042  RH  067%=      5-min Rain = 0
KFL1 140102Z 35006KT 01/M04 A3008 RMK A01 T00131042  RH  067%=      5-min Rain = 0
KFL1 140103Z 33007KT 01/M04 A3008 RMK A01 T00131043  RH  066%=      5-min Rain = 0
KFL1 140104Z 32005KT 01/M04 A3008 RMK A01 T00131042  RH  067%=      5-min Rain = 0
KFL1 140105Z 33005KT 01/M04 A3008 RMK A01 T00131042  RH  066%=      5-min Rain = 0
KFL1 140106Z 33005KT 01/M04 A3008 RMK A01 T00131042  RH  067%=      5-min Rain = 0
KFL1 140107Z 33005KT 02/M04 A3008 RMK A01 T00151041  RH  067%=      5-min Rain = 0
KFL1 140108Z 33005KT 01/M04 A3008 RMK A01 T00131042  RH  066%=      5-min Rain = 0
KFL1 140109Z 33006KT 01/M04 A3007 RMK A01 T00131041  RH  067%=      5-min Rain = 0
KFL1 140110Z 33007KT 01/M04 A3007 RMK A01 T00131042  RH  067%=      5-min Rain = 0
KFL1 140111Z 34007KT 01/M04 A3007 RMK A01 T00141042  RH  066%=      5-min Rain = 0
KFL1 140112Z 34007KT 01/M04 A3007 RMK A01 T00141042  RH  066%=      5-min Rain = 0
KFL1 140113Z 33006KT 02/M04 A3007 RMK A01 T00151042  RH  066%=      5-min Rain = 0
KFL1 140114Z 33006KT 02/M04 A3007 RMK A01 T00151041  RH  066%=      5-min Rain = 0
KFL1 140115Z 33007KT 02/M04 A3007 RMK A01 T00151041  RH  066%=      5-min Rain = 0
KFL1 140116Z 33007KT 01/M04 A3007 RMK A01 T00141043  RH  066%=      5-min Rain = 0
KFL1 140117Z 33006KT 01/M05 A3007 RMK A01 T00141045  RH  065%=      5-min Rain = 0
KFL1 140118Z 32005KT 02/M04 A3007 RMK A01 T00161043  RH  065%=      5-min Rain = 0
KFL1 140119Z 32005KT 02/M04 A3007 RMK A01 T00161043  RH  065%=      5-min Rain = 0
KFL1 140120Z 32005KT 02/M04 A3007 RMK A01 T00161042  RH  065%=      5-min Rain = 0
KFL1 140121Z 32005KT 02/M04 A3007 RMK A01 T00161043  RH  065%=      5-min Rain = 0
KFL1 140122Z 32005KT 02/M04 A3007 RMK A01 T00161042  RH  065%=      5-min Rain = 0
KFL1 140123Z 32007KT 02/M04 A3007 RMK A01 T00171041  RH  066%=      5-min Rain = 0
KFL1 140124Z 32008KT 02/M04 A3007 RMK A01 T00161043  RH  065%=      5-min Rain = 0
KFL1 140125Z 33008KT 02/M04 A3007 RMK A01 T00161043  RH  065%=      5-min Rain = 0
KFL1 140126Z 33008KT 02/M04 A3007 RMK A01 T00161044  RH  064%=      5-min Rain = 0
KFL1 140127Z 33009KT 02/M05 A3007 RMK A01 T00161045  RH  064%=      5-min Rain = 0
KFL1 140128Z 33008KT 02/M04 A3007 RMK A01 T00171044  RH  064%=      5-min Rain = 0
KFL1 140129Z 32008KT 02/M04 A3007 RMK A01 T00191043  RH  064%=      5-min Rain = 0
KFL1 140130Z 33008KT 02/M04 A3007 RMK A01 T00181042  RH  064%=      5-min Rain = 0
KFL1 140131Z 33007KT 02/M04 A3006 RMK A01 T00181042  RH  064%=      5-min Rain = 0
KFL1 140132Z 33007KT 02/M04 A3006 RMK A01 T00181043  RH  064%=      5-min Rain = 0
KFL1 140133Z 33007KT 02/M05 A3006 RMK A01 T00181045  RH  063%=      5-min Rain = 0
KFL1 140134Z 33007KT 02/M04 A3006 RMK A01 T00181043  RH  064%=      5-min Rain = 0
KFL1 140135Z 32008KT 02/M04 A3006 RMK A01 T00181041  RH  065%=      5-min Rain = 0
KFL1 140136Z 32007KT 02/M04 A3006 RMK A01 T00171042  RH  065%=      5-min Rain = 0
KFL1 140137Z 32007KT 02/M04 A3006 RMK A01 T00171043  RH  065%=      5-min Rain = 0
KFL1 140138Z 32006KT 02/M04 A3006 RMK A01 T00181043  RH  064%=      5-min Rain = 0
KFL1 140139Z 32006KT 02/M04 A3006 RMK A01 T00181044  RH  063%=      5-min Rain = 0
KFL1 140140Z 31005KT 02/M04 A3006 RMK A01 T00191043  RH  064%=      5-min Rain = 0
KFL1 140141Z 31006KT 02/M05 A3006 RMK A01 T00191045  RH  063%=      5-min Rain = 0
KFL1 140142Z 31007KT 02/M05 A3006 RMK A01 T00181046  RH  062%=      5-min Rain = 0
KFL1 140143Z 31005KT 02/M05 A3006 RMK A01 T00191045  RH  062%=      5-min Rain = 0
KFL1 140144Z 32006KT 02/M04 A3006 RMK A01 T00191044  RH  063%=      5-min Rain = 0
KFL1 140145Z 32007KT 02/M04 A3006 RMK A01 T00181044  RH  063%=      5-min Rain = 0
KFL1 140146Z 32006KT 02/M05 A3006 RMK A01 T00181045  RH  063%=      5-min Rain = 0
KFL1 140147Z 32006KT 02/M05 A3006 RMK A01 T00171045  RH  063%=      5-min Rain = 0
KFL1 140148Z 32007KT 02/M04 A3006 RMK A01 T00191044  RH  063%=      5-min Rain = 0
KFL1 140149Z 31005KT 02/M05 A3006 RMK A01 T00181046  RH  063%=      5-min Rain = 0
KFL1 140150Z 32008KT 02/M05 A3006 RMK A01 T00191046  RH  062%=      5-min Rain = 0
KFL1 140151Z 32007KT 02/M04 A3006 RMK A01 T00191043  RH  064%=      5-min Rain = 0
KFL1 140152Z 32007KT 02/M04 A3006 RMK A01 T00201042  RH  064%=      5-min Rain = 0
KFL1 140153Z 31006KT 02/M05 A3006 RMK A01 T00181045  RH  063%=      5-min Rain = 0
KFL1 140154Z 32006KT 02/M05 A3006 RMK A01 T00181047  RH  062%=      5-min Rain = 0
KFL1 140155Z 31005KT 02/M04 A3006 RMK A01 T00201044  RH  063%=      5-min Rain = 0
KFL1 140156Z 33007KT 02/M05 A3006 RMK A01 T00191045  RH  063%=      5-min Rain = 0
KFL1 140157Z 31005KT 02/M04 A3006 RMK A01 T00201044  RH  063%=      5-min Rain = 0
KFL1 140158Z 31006KT 02/M05 A3006 RMK A01 T00191045  RH  062%=      5-min Rain = 0
KFL1 140159Z 32007KT 02/M04 A3006 RMK A01 T00201044  RH  063%=      5-min Rain = 0
KFL1 140200Z 31005KT 02/M04 A3006 RMK A01 T00191044  RH  063%=      5-min Rain = 0
KFL1 140201Z 31005KT 02/M05 A3005 RMK A01 T00191046  RH  062%=      5-min Rain = 0
KFL1 140202Z 31005KT 02/M04 A3005 RMK A01 T00201044  RH  062%=      5-min Rain = 0
KFL1 140203Z 31005KT 02/M05 A3005 RMK A01 T00201045  RH  062%=      5-min Rain = 0
KFL1 140204Z 31005KT 02/M04 A3005 RMK A01 T00201044  RH  063%=      5-min Rain = 0
KFL1 140205Z 32003KT 02/M04 A3005 RMK A01 T00191043  RH  063%=      5-min Rain = 0
KFL1 140206Z 31004KT 02/M04 A3005 RMK A01 T00201043  RH  063%=      5-min Rain = 0
KFL1 140207Z 30005KT 02/M04 A3005 RMK A01 T00191043  RH  063%=      5-min Rain = 0
KFL1 140208Z 31006KT 02/M04 A3005 RMK A01 T00191041  RH  064%=      5-min Rain = 0
KFL1 140209Z 27003KT 02/M04 A3005 RMK A01 T00201042  RH  063%=      5-min Rain = 0
KFL1 140210Z 27004KT 02/M04 A3005 RMK A01 T00181043  RH  064%=      5-min Rain = 0
KFL1 140211Z 29004KT 02/M04 A3005 RMK A01 T00181042  RH  064%=      5-min Rain = 0
KFL1 140212Z 29003KT 02/M04 A3005 RMK A01 T00191042  RH  064%=      5-min Rain = 0
KFL1 140213Z 30003KT 02/M04 A3005 RMK A01 T00181042  RH  064%=      5-min Rain = 0
KFL1 140214Z 28003KT 02/M04 A3005 RMK A01 T00181042  RH  064%=      5-min Rain = 0
KFL1 140215Z 28004KT 02/M04 A3005 RMK A01 T00191040  RH  065%=      5-min Rain = 0
KFL1 140216Z 28004KT 02/M04 A3005 RMK A01 T00171042  RH  065%=      5-min Rain = 0
KFL1 140217Z 28003KT 02/M04 A3005 RMK A01 T00171042  RH  065%=      5-min Rain = 0
KFL1 140218Z 31003KT 02/M05 A3005 RMK A01 T00161045  RH  064%=      5-min Rain = 0
KFL1 140219Z 29003KT 02/M05 A3005 RMK A01 T00181045  RH  063%=      5-min Rain = 0
KFL1 140220Z 27003KT 02/M04 A3005 RMK A01 T00181044  RH  063%=      5-min Rain = 0
KFL1 140221Z 27002KT 02/M05 A3006 RMK A01 T00181045  RH  063%=      5-min Rain = 0
KFL1 140222Z 29004KT 02/M05 A3005 RMK A01 T00191045  RH  063%=      5-min Rain = 0
KFL1 140223Z 27004KT 02/M04 A3005 RMK A01 T00201043  RH  063%=      5-min Rain = 0
KFL1 140224Z 29004KT 02/M05 A3005 RMK A01 T00181045  RH  063%=      5-min Rain = 0
KFL1 140225Z 28004KT 02/M04 A3006 RMK A01 T00191043  RH  063%=      5-min Rain = 0
KFL1 140226Z 28003KT 02/M04 A3006 RMK A01 T00201043  RH  063%=      5-min Rain = 0
KFL1 140227Z 30003KT 02/M05 A3005 RMK A01 T00191045  RH  063%=      5-min Rain = 0
KFL1 140228Z 30003KT 02/M05 A3005 RMK A01 T00181046  RH  062%=      5-min Rain = 0
KFL1 140229Z 30004KT 02/M04 A3005 RMK A01 T00201042  RH  064%=      5-min Rain = 0
KFL1 140230Z 30004KT 02/M04 A3005 RMK A01 T00181041  RH  065%=      5-min Rain = 0
KFL1 140231Z 31006KT 02/M04 A3005 RMK A01 T00181042  RH  064%=      5-min Rain = 0
KFL1 140232Z 29006KT 02/M05 A3005 RMK A01 T00181045  RH  063%=      5-min Rain = 0
KFL1 140233Z 28003KT 02/M05 A3005 RMK A01 T00191045  RH  062%=      5-min Rain = 0
KFL1 140234Z 28003KT 02/M05 A3005 RMK A01 T00201045  RH  062%=      5-min Rain = 0
KFL1 140235Z 29004KT 02/M05 A3005 RMK A01 T00181045  RH  063%=      5-min Rain = 0
KFL1 140236Z 30005KT 02/M04 A3005 RMK A01 T00201042  RH  064%=      5-min Rain = 0
KFL1 140237Z 30005KT 02/M04 A3005 RMK A01 T00201041  RH  064%=      5-min Rain = 0
KFL1 140238Z 31004KT 02/M04 A3005 RMK A01 T00201042  RH  064%=      5-min Rain = 0
KFL1 140239Z 31005KT 02/M04 A3004 RMK A01 T00191042  RH  064%=      5-min Rain = 0
KFL1 140240Z 31006KT 02/M05 A3004 RMK A01 T00191045  RH  062%=      5-min Rain = 0
KFL1 140241Z 32006KT 02/M05 A3004 RMK A01 T00191045  RH  062%=      5-min Rain = 0
KFL1 140242Z 32006KT 02/M05 A3004 RMK A01 T00201045  RH  062%=      5-min Rain = 0
KFL1 140243Z 33005KT 02/M04 A3004 RMK A01 T00211044  RH  062%=      5-min Rain = 0
KFL1 140244Z 33007KT 02/M04 A3004 RMK A01 T00211043  RH  063%=      5-min Rain = 0
KFL1 140245Z 32006KT 02/M05 A3004 RMK A01 T00191045  RH  062%=      5-min Rain = 0
KFL1 140246Z 32006KT 02/M05 A3004 RMK A01 T00201045  RH  062%=      5-min Rain = 0
KFL1 140247Z 32007KT 02/M05 A3005 RMK A01 T00201045  RH  062%=      5-min Rain = 0
KFL1 140248Z 32006KT 02/M04 A3005 RMK A01 T00211044  RH  062%=      5-min Rain = 0
KFL1 140249Z 32006KT 02/M04 A3005 RMK A01 T00211044  RH  062%=      5-min Rain = 0
KFL1 140250Z 32005KT 02/M04 A3004 RMK A01 T00211044  RH  062%=      5-min Rain = 0
KFL1 140251Z 32005KT 02/M04 A3005 RMK A01 T00211043  RH  063%=      5-min Rain = 0
KFL1 140252Z 32006KT 02/M04 A3005 RMK A01 T00211044  RH  062%=      5-min Rain = 0
KFL1 140253Z 31005KT 02/M05 A3005 RMK A01 T00211046  RH  061%=      5-min Rain = 0
KFL1 140254Z 32005KT 02/M05 A3005 RMK A01 T00201047  RH  061%=      5-min Rain = 0
KFL1 140255Z 32005KT 02/M04 A3005 RMK A01 T00231043  RH  062%=      5-min Rain = 0
KFL1 140256Z 32005KT 02/M05 A3005 RMK A01 T00211045  RH  061%=      5-min Rain = 0
KFL1 140257Z 30007KT 02/M05 A3005 RMK A01 T00221045  RH  061%=      5-min Rain = 0
KFL1 140258Z 31007KT 02/M05 A3005 RMK A01 T00231048  RH  060%=      5-min Rain = 0
KFL1 140259Z 31005KT 02/M05 A3005 RMK A01 T00231049  RH  059%=      5-min Rain = 0
KFL1 140300Z 31004KT 02/M05 A3005 RMK A01 T00241048  RH  059%=      5-min Rain = 0
KFL1 140301Z 30005KT 02/M05 A3005 RMK A01 T00241045  RH  060%=      5-min Rain = 0
KFL1 140302Z 30005KT 02/M04 A3005 RMK A01 T00231044  RH  061%=      5-min Rain = 0
KFL1 140303Z 30005KT 02/M04 A3006 RMK A01 T00221044  RH  062%=      5-min Rain = 0
KFL1 140304Z 31006KT 02/M05 A3006 RMK A01 T00211049  RH  060%=      5-min Rain = 0
KFL1 140305Z 31008KT 02/M05 A3005 RMK A01 T00231047  RH  060%=      5-min Rain = 0
KFL1 140306Z 32008KT 03/M05 A3005 RMK A01 T00251047  RH  059%=      5-min Rain = 0
KFL1 140307Z 32006KT 03/M05 A3005 RMK A01 T00251046  RH  060%=      5-min Rain = 0
KFL1 140308Z 30005KT 03/M05 A3005 RMK A01 T00251046  RH  059%=      5-min Rain = 0
KFL1 140309Z 29004KT 02/M05 A3005 RMK A01 T00241045  RH  060%=      5-min Rain = 0
KFL1 140310Z 30004KT 02/M05 A3005 RMK A01 T00241046  RH  060%=      5-min Rain = 0
KFL1 140311Z 28004KT 03/M05 A3005 RMK A01 T00251045  RH  060%=      5-min Rain = 0
KFL1 140312Z 28005KT 02/M05 A3005 RMK A01 T00241047  RH  059%=      5-min Rain = 0
KFL1 140313Z 28005KT 02/M05 A3005 RMK A01 T00241048  RH  059%=      5-min Rain = 0
KFL1 140314Z 29005KT 02/M04 A3005 RMK A01 T00241044  RH  061%=      5-min Rain = 0
KFL1 140315Z 28003KT 02/M04 A3004 RMK A01 T00231043  RH  061%=      5-min Rain = 0
KFL1 140316Z 26003KT 02/M04 A3004 RMK A01 T00231044  RH  061%=      5-min Rain = 0
KFL1 140317Z 28004KT 02/M05 A3004 RMK A01 T00221047  RH  060%=      5-min Rain = 0
KFL1 140318Z 27005KT 02/M05 A3004 RMK A01 T00231047  RH  060%=      5-min Rain = 0
KFL1 140319Z 27005KT 02/M05 A3004 RMK A01 T00241046  RH  060%=      5-min Rain = 0
KFL1 140320Z 25004KT 02/M05 A3004 RMK A01 T00231045  RH  061%=      5-min Rain = 0
KFL1 140321Z 23004KT 02/M04 A3004 RMK A01 T00231043  RH  062%=      5-min Rain = 0
KFL1 140322Z 20004KT 02/M04 A3004 RMK A01 T00231041  RH  062%=      5-min Rain = 0
KFL1 140323Z 20004KT 02/M04 A3004 RMK A01 T00211044  RH  062%=      5-min Rain = 0
KFL1 140324Z 20003KT 02/M04 A3004 RMK A01 T00201044  RH  063%=      5-min Rain = 0
KFL1 140325Z 20003KT 02/M05 A3004 RMK A01 T00201045  RH  062%=      5-min Rain = 0
KFL1 140326Z 20003KT 02/M04 A3003 RMK A01 T00201044  RH  063%=      5-min Rain = 0
KFL1 140327Z 21003KT 02/M05 A3003 RMK A01 T00181045  RH  063%=      5-min Rain = 0
KFL1 140328Z 22002KT 02/M05 A3003 RMK A01 T00181045  RH  063%=      5-min Rain = 0
KFL1 140329Z 22003KT 02/M04 A3003 RMK A01 T00171044  RH  064%=      5-min Rain = 0
KFL1 140330Z 23003KT 02/M04 A3003 RMK A01 T00181043  RH  064%=      5-min Rain = 0
KFL1 140331Z 23003KT 02/M04 A3003 RMK A01 T00171041  RH  065%=      5-min Rain = 0
KFL1 140332Z 25002KT 02/M04 A3003 RMK A01 T00161043  RH  065%=      5-min Rain = 0
KFL1 140333Z 26003KT 02/M04 A3004 RMK A01 T00161042  RH  066%=      5-min Rain = 0
KFL1 140334Z 26003KT 02/M04 A3004 RMK A01 T00151042  RH  066%=      5-min Rain = 0
KFL1 140335Z 28002KT 02/M04 A3004 RMK A01 T00151041  RH  067%=      5-min Rain = 0
KFL1 140336Z 28002KT 01/M04 A3004 RMK A01 T00131038  RH  069%=      5-min Rain = 0
KFL1 140337Z 28003KT 01/M04 A3004 RMK A01 T00131036  RH  070%=      5-min Rain = 0
KFL1 140338Z 28002KT 01/M04 A3004 RMK A01 T00131036  RH  069%=      5-min Rain = 0
KFL1 140339Z 28003KT 01/M04 A3004 RMK A01 T00131039  RH  068%=      5-min Rain = 0
KFL1 140340Z 28002KT 01/M04 A3003 RMK A01 T00121041  RH  068%=      5-min Rain = 0
KFL1 140341Z 28002KT 01/M04 A3003 RMK A01 T00121040  RH  068%=      5-min Rain = 0
KFL1 140342Z 27002KT 01/M04 A3003 RMK A01 T00111040  RH  068%=      5-min Rain = 0
KFL1 140343Z 28002KT 01/M04 A3003 RMK A01 T00101041  RH  068%=      5-min Rain = 0
KFL1 140344Z 28002KT 01/M04 A3003 RMK A01 T00111039  RH  069%=      5-min Rain = 0
KFL1 140345Z 28002KT 01/M04 A3003 RMK A01 T00111040  RH  069%=      5-min Rain = 0
KFL1 140346Z 29002KT 01/M04 A3004 RMK A01 T00121039  RH  069%=      5-min Rain = 0
KFL1 140347Z 28002KT 01/M04 A3004 RMK A01 T00131036  RH  070%=      5-min Rain = 0
KFL1 140348Z 28003KT 01/M04 A3004 RMK A01 T00121039  RH  069%=      5-min Rain = 0
KFL1 140349Z 28003KT 01/M04 A3004 RMK A01 T00121041  RH  068%=      5-min Rain = 0
KFL1 140350Z 28002KT 01/M04 A3004 RMK A01 T00121042  RH  067%=      5-min Rain = 0
KFL1 140351Z 28003KT 01/M04 A3004 RMK A01 T00121042  RH  067%=      5-min Rain = 0
KFL1 140352Z 28003KT 01/M04 A3004 RMK A01 T00131040  RH  068%=      5-min Rain = 0
KFL1 140353Z 28002KT 01/M04 A3004 RMK A01 T00141036  RH  069%=      5-min Rain = 0
KFL1 140354Z 28002KT 01/M04 A3004 RMK A01 T00131037  RH  070%=      5-min Rain = 0
KFL1 140355Z 27001KT 01/M04 A3004 RMK A01 T00131038  RH  069%=      5-min Rain = 0
KFL1 140356Z 28001KT 01/M04 A3004 RMK A01 T00131040  RH  068%=      5-min Rain = 0
KFL1 140357Z 28001KT 01/M04 A3004 RMK A01 T00121042  RH  067%=      5-min Rain = 0
KFL1 140358Z 28001KT 01/M04 A3004 RMK A01 T00111043  RH  067%=      5-min Rain = 0
KFL1 140359Z 28002KT 01/M04 A3004 RMK A01 T00121042  RH  067%=      5-min Rain = 0
KFL1 140400Z 28002KT 01/M04 A3004 RMK A01 T00121041  RH  068%=      5-min Rain = 0
KFL1 140401Z 27002KT 01/M04 A3004 RMK A01 T00121043  RH  067%=      5-min Rain = 0
KFL1 140402Z 27002KT 01/M04 A3004 RMK A01 T00121043  RH  066%=      5-min Rain = 0
KFL1 140403Z 27002KT 01/M04 A3003 RMK A01 T00121043  RH  067%=      5-min Rain = 0
KFL1 140404Z 28002KT 01/M04 A3004 RMK A01 T00121042  RH  067%=      5-min Rain = 0
KFL1 140405Z 28002KT 01/M04 A3004 RMK A01 T00111041  RH  068%=      5-min Rain = 0
KFL1 140406Z 28002KT 01/M04 A3003 RMK A01 T00121040  RH  068%=      5-min Rain = 0
KFL1 140407Z 28001KT 01/M04 A3003 RMK A01 T00121041  RH  068%=      5-min Rain = 0
KFL1 140408Z 30002KT 01/M04 A3003 RMK A01 T00131040  RH  067%=      5-min Rain = 0
KFL1 140409Z 31002KT 01/M04 A3003 RMK A01 T00121042  RH  067%=      5-min Rain = 0
KFL1 140410Z 31002KT 01/M04 A3003 RMK A01 T00111043  RH  067%=      5-min Rain = 0
KFL1 140411Z 31003KT 01/M04 A3004 RMK A01 T00131040  RH  068%=      5-min Rain = 0
KFL1 140412Z 30003KT 01/M04 A3003 RMK A01 T00121039  RH  069%=      5-min Rain = 0
KFL1 140413Z 30002KT 01/M04 A3003 RMK A01 T00111042  RH  068%=      5-min Rain = 0
KFL1 140414Z 31002KT 01/M04 A3003 RMK A01 T00121041  RH  068%=      5-min Rain = 0
KFL1 140415Z 31002KT 01/M04 A3003 RMK A01 T00121043  RH  067%=      5-min Rain = 0
KFL1 140416Z 32002KT 01/M04 A3003 RMK A01 T00111044  RH  066%=      5-min Rain = 0
KFL1 140417Z 32002KT 01/M04 A3003 RMK A01 T00111041  RH  068%=      5-min Rain = 0
KFL1 140418Z 32002KT 01/M04 A3003 RMK A01 T00111038  RH  070%=      5-min Rain = 0
KFL1 140419Z 32002KT 01/M04 A3003 RMK A01 T00101038  RH  070%=      5-min Rain = 0
KFL1 140420Z 30002KT 01/M04 A3003 RMK A01 T00111040  RH  069%=      5-min Rain = 0
KFL1 140421Z 31001KT 01/M04 A3003 RMK A01 T00121041  RH  068%=      5-min Rain = 0
KFL1 140422Z 32001KT 01/M04 A3003 RMK A01 T00121043  RH  067%=      5-min Rain = 0
KFL1 140423Z 32001KT 01/M04 A3003 RMK A01 T00121044  RH  067%=      5-min Rain = 0
KFL1 140424Z 32001KT 01/M04 A3003 RMK A01 T00131042  RH  067%=      5-min Rain = 0
KFL1 140425Z 32000KT 01/M04 A3003 RMK A01 T00131043  RH  066%=      5-min Rain = 0
KFL1 140426Z 00000KT 01/M05 A3003 RMK A01 T00121046  RH  066%=      5-min Rain = 0
KFL1 140427Z 32000KT 01/M05 A3003 RMK A01 T00121046  RH  065%=      5-min Rain = 0
KFL1 140428Z 32000KT 01/M05 A3003 RMK A01 T00121046  RH  065%=      5-min Rain = 0
KFL1 140429Z 00000KT 01/M05 A3003 RMK A01 T00121046  RH  065%=      5-min Rain = 0
KFL1 140430Z 00000KT 01/M05 A3003 RMK A01 T00131045  RH  066%=      5-min Rain = 0
KFL1 140431Z 05001KT 01/M04 A3003 RMK A01 T00131044  RH  066%=      5-min Rain = 0
KFL1 140432Z 05002KT 01/M04 A3003 RMK A01 T00121044  RH  066%=      5-min Rain = 0
KFL1 140433Z 06002KT 01/M04 A3003 RMK A01 T00111044  RH  067%=      5-min Rain = 0
KFL1 140434Z 07002KT 01/M04 A3003 RMK A01 T00111042  RH  068%=      5-min Rain = 0
KFL1 140435Z 08002KT 01/M04 A3003 RMK A01 T00091043  RH  068%=      5-min Rain = 0
KFL1 140436Z 08002KT 01/M04 A3003 RMK A01 T00101042  RH  068%=      5-min Rain = 0
KFL1 140437Z 09002KT 01/M04 A3002 RMK A01 T00101042  RH  068%=      5-min Rain = 0
KFL1 140438Z 12003KT 01/M04 A3002 RMK A01 T00091042  RH  069%=      5-min Rain = 0
KFL1 140439Z 12002KT 01/M04 A3002 RMK A01 T00091042  RH  069%=      5-min Rain = 0
KFL1 140440Z 12002KT 01/M04 A3002 RMK A01 T00091041  RH  069%=      5-min Rain = 0
KFL1 140441Z 11001KT 01/M04 A3002 RMK A01 T00081041  RH  070%=      5-min Rain = 0
KFL1 140442Z 12002KT 01/M04 A3003 RMK A01 T00091040  RH  070%=      5-min Rain = 0
KFL1 140443Z 12002KT 01/M04 A3003 RMK A01 T00081041  RH  070%=      5-min Rain = 0
KFL1 140444Z 11003KT 01/M04 A3002 RMK A01 T00081041  RH  070%=      5-min Rain = 0
KFL1 140445Z 11002KT 01/M04 A3002 RMK A01 T00091039  RH  070%=      5-min Rain = 0
KFL1 140446Z 11002KT 01/M04 A3002 RMK A01 T00081040  RH  071%=      5-min Rain = 0
KFL1 140447Z 11003KT 01/M04 A3002 RMK A01 T00081040  RH  071%=      5-min Rain = 0
KFL1 140448Z 10003KT 01/M04 A3002 RMK A01 T00071040  RH  071%=      5-min Rain = 0
KFL1 140449Z 10003KT 01/M04 A3002 RMK A01 T00071040  RH  071%=      5-min Rain = 0
KFL1 140450Z 09003KT 01/M04 A3001 RMK A01 T00071040  RH  071%=      5-min Rain = 0
KFL1 140451Z 08002KT 01/M04 A3001 RMK A01 T00061038  RH  072%=      5-min Rain = 0
KFL1 140452Z 07003KT 01/M04 A3002 RMK A01 T00061038  RH  073%=      5-min Rain = 0
KFL1 140453Z 08004KT 01/M04 A3001 RMK A01 T00061037  RH  073%=      5-min Rain = 0
KFL1 140454Z 08004KT 01/M04 A3001 RMK A01 T00051038  RH  073%=      5-min Rain = 0
KFL1 140455Z 06003KT 00/M04 A3001 RMK A01 T00041037  RH  074%=      5-min Rain = 0
KFL1 140456Z 06003KT 00/M04 A3002 RMK A01 T00041037  RH  074%=      5-min Rain = 0
KFL1 140457Z 07003KT 01/M04 A3001 RMK A01 T00051037  RH  073%=      5-min Rain = 0
KFL1 140458Z 06003KT 01/M04 A3001 RMK A01 T00061036  RH  074%=      5-min Rain = 0
KFL1 140459Z 07002KT 00/M04 A3001 RMK A01 T00041037  RH  074%=      5-min Rain = 0
KFL1 140500Z 07003KT 01/M04 A3001 RMK A01 T00061036  RH  074%=      5-min Rain = 0
KFL1 140501Z 07003KT 00/M04 A3001 RMK A01 T00041037  RH  074%=      5-min Rain = 0
KFL1 140502Z 06003KT 00/M04 A3001 RMK A01 T00041036  RH  074%=      5-min Rain = 0
KFL1 140503Z 05003KT 01/M04 A3001 RMK A01 T00051036  RH  074%=      5-min Rain = 0
KFL1 140504Z 05003KT 00/M04 A3001 RMK A01 T00041037  RH  074%=      5-min Rain = 0
KFL1 140505Z 05003KT 00/M04 A3001 RMK A01 T00041036  RH  074%=      5-min Rain = 0
KFL1 140506Z 05004KT 00/M04 A3001 RMK A01 T00041036  RH  075%=      5-min Rain = 0
KFL1 140507Z 05004KT 00/M04 A3001 RMK A01 T00041035  RH  075%=      5-min Rain = 0
KFL1 140508Z 06003KT 00/M04 A3001 RMK A01 T00041035  RH  075%=      5-min Rain = 0
KFL1 140509Z 06004KT 00/M04 A3001 RMK A01 T00031036  RH  075%=      5-min Rain = 0
KFL1 140510Z 06004KT 00/M03 A3001 RMK A01 T00041034  RH  075%=      5-min Rain = 0
KFL1 140511Z 06004KT 00/M03 A3001 RMK A01 T00041034  RH  075%=      5-min Rain = 0
KFL1 140512Z 05004KT 00/M04 A3001 RMK A01 T00031036  RH  075%=      5-min Rain = 0
KFL1 140513Z 05004KT 00/M04 A3002 RMK A01 T00031035  RH  075%=      5-min Rain = 0
KFL1 140514Z 05005KT 00/M04 A3002 RMK A01 T00031035  RH  075%=      5-min Rain = 0
KFL1 140515Z 05004KT 00/M03 A3002 RMK A01 T00041034  RH  075%=      5-min Rain = 0
KFL1 140516Z 05004KT 00/M04 A3001 RMK A01 T00031035  RH  076%=      5-min Rain = 0
KFL1 140517Z 05004KT 00/M04 A3001 RMK A01 T00031035  RH  075%=      5-min Rain = 0
KFL1 140518Z 05004KT 00/M03 A3001 RMK A01 T00041034  RH  075%=      5-min Rain = 0
KFL1 140519Z 05004KT 00/M03 A3001 RMK A01 T00041034  RH  075%=      5-min Rain = 0
KFL1 140520Z 04005KT 00/M04 A3001 RMK A01 T00021037  RH  075%=      5-min Rain = 0
KFL1 140521Z 04004KT 00/M04 A3001 RMK A01 T00041036  RH  075%=      5-min Rain = 0
KFL1 140522Z 04004KT 00/M04 A3001 RMK A01 T00041036  RH  074%=      5-min Rain = 0
KFL1 140523Z 05004KT 00/M04 A3001 RMK A01 T00041037  RH  074%=      5-min Rain = 0
KFL1 140524Z 05004KT 00/M04 A3001 RMK A01 T00041037  RH  074%=      5-min Rain = 0
KFL1 140525Z 05004KT 00/M04 A3001 RMK A01 T00041037  RH  074%=      5-min Rain = 0
KFL1 140526Z 05004KT 00/M04 A3001 RMK A01 T00041036  RH  074%=      5-min Rain = 0
KFL1 140527Z 05005KT 00/M04 A3001 RMK A01 T00041036  RH  074%=      5-min Rain = 0
KFL1 140528Z 04005KT 00/M04 A3001 RMK A01 T00031037  RH  074%=      5-min Rain = 0
KFL1 140529Z 03005KT 01/M04 A3001 RMK A01 T00051035  RH  075%=      5-min Rain = 0
KFL1 140530Z 03005KT 01/M04 A3001 RMK A01 T00061036  RH  074%=      5-min Rain = 0
KFL1 140531Z 04005KT 00/M04 A3001 RMK A01 T00041038  RH  074%=      5-min Rain = 0
KFL1 140532Z 05005KT 00/M04 A3001 RMK A01 T00041038  RH  073%=      5-min Rain = 0
KFL1 140533Z 05004KT 01/M04 A3001 RMK A01 T00061036  RH  074%=      5-min Rain = 0
KFL1 140534Z 04005KT 01/M04 A3001 RMK A01 T00051036  RH  074%=      5-min Rain = 0
KFL1 140535Z 05005KT 01/M04 A3001 RMK A01 T00051036  RH  074%=      5-min Rain = 0
KFL1 140536Z 05004KT 01/M04 A30 RMK A01 T00051036  RH  074%=      5-min Rain = 0
KFL1 140537Z 06004KT 01/M04 A30 RMK A01 T00051036  RH  074%=      5-min Rain = 0
KFL1 140538Z 06004KT 00/M04 A30 RMK A01 T00041036  RH  074%=      5-min Rain = 0
KFL1 140539Z 05004KT 01/M04 A30 RMK A01 T00051036  RH  074%=      5-min Rain = 0
KFL1 140540Z 04004KT 00/M04 A30 RMK A01 T00041036  RH  074%=      5-min Rain = 0
KFL1 140541Z 04004KT 00/M04 A30 RMK A01 T00041036  RH  074%=      5-min Rain = 0
KFL1 140542Z 05005KT 00/M04 A30 RMK A01 T00031038  RH  074%=      5-min Rain = 0
KFL1 140543Z 06004KT 01/M04 A30 RMK A01 T00051035  RH  075%=      5-min Rain = 0
KFL1 140544Z 07003KT 00/M04 A30 RMK A01 T00031036  RH  075%=      5-min Rain = 0
KFL1 140545Z 07003KT 00/M03 A30 RMK A01 T00041034  RH  075%=      5-min Rain = 0
KFL1 140546Z 06004KT 00/M03 A30 RMK A01 T00041034  RH  076%=      5-min Rain = 0
KFL1 140547Z 07004KT 00/M03 A3001 RMK A01 T00031034  RH  076%=      5-min Rain = 0
KFL1 140548Z 06004KT 00/M04 A3001 RMK A01 T00021035  RH  076%=      5-min Rain = 0
KFL1 140549Z 06003KT 00/M04 A3001 RMK A01 T00021035  RH  077%=      5-min Rain = 0
KFL1 140550Z 07004KT 00/M03 A3001 RMK A01 T00021034  RH  077%=      5-min Rain = 0
KFL1 140551Z 06004KT 00/M03 A30 RMK A01 T00021034  RH  077%=      5-min Rain = 0
KFL1 140552Z 07004KT 00/M03 A30 RMK A01 T00031033  RH  077%=      5-min Rain = 0
KFL1 140553Z 07004KT 00/M03 A30 RMK A01 T00021032  RH  078%=      5-min Rain = 0
KFL1 140554Z 08003KT 00/M03 A30 RMK A01 T00011033  RH  078%=      5-min Rain = 0
KFL1 140555Z 07003KT 00/M03 A30 RMK A01 T00021031  RH  078%=      5-min Rain = 0
KFL1 140556Z 07003KT 00/M03 A30 RMK A01 T00021031  RH  079%=      5-min Rain = 0
KFL1 140557Z 07003KT 00/M03 A30 RMK A01 T00011032  RH  078%=      5-min Rain = 0
KFL1 140558Z 08003KT 00/M03 A30 RMK A01 T00011033  RH  078%=      5-min Rain = 0
KFL1 140559Z 08003KT 00/03 A30 RMK A01 T00000-33  RH  078%=      5-min Rain = 0

Page generated in 0.0645 seconds.